<?xml version="1.0" encoding="UTF-8" standalone="no" ?>
<gpx xmlns="http://www.topografix.com/GPX/1/1" xmlns:xsi="http://www.w3.org/2001/XMLSchema-instance" xsi:schemaLocation="http://www.topografix.com/GPX/1/1 http://www.topografix.com/GPX/1/1/gpx.xsd" version="1.1" creator="VisuGPX - https://www.visugpx.com">
  <metadata>
    <name>Randonnée Pont St Pierre</name>
    <desc><![CDATA[Départ de Pt St Pierre puis Amfreville sous les Monts et Pitres]]></desc>
  </metadata>
  <wpt lat="49.33162" lon="1.27967">
    <ele>59</ele>
  </wpt>
  <wpt lat="49.33154" lon="1.2798">
    <ele>59</ele>
    <name><![CDATA[WP 02DF]]></name>
  </wpt>
  <trk>
    <name><![CDATA[Randonnée Pont St Pierre_1]]></name>
    <trkseg>
      <trkpt lat="49.33162" lon="1.27967">
        <ele>59</ele>
        <time>2012-03-06T12:58:51Z</time>
      </trkpt>
      <trkpt lat="49.33151" lon="1.27973">
        <ele>59</ele>
        <time>2012-03-06T12:58:58Z</time>
      </trkpt>
      <trkpt lat="49.33158" lon="1.27983">
        <ele>59</ele>
        <time>2012-03-06T12:58:59Z</time>
      </trkpt>
      <trkpt lat="49.33148" lon="1.27979">
        <ele>59</ele>
        <time>2012-03-06T12:59:08Z</time>
      </trkpt>
      <trkpt lat="49.33154" lon="1.2798">
        <ele>59</ele>
        <time>2012-03-06T12:59:03Z</time>
      </trkpt>
      <trkpt lat="49.33145" lon="1.27988">
        <ele>59</ele>
        <time>2012-03-06T12:59:10Z</time>
      </trkpt>
      <trkpt lat="49.33136" lon="1.27989">
        <ele>59</ele>
        <time>2012-03-06T12:59:13Z</time>
      </trkpt>
      <trkpt lat="49.33122" lon="1.28">
        <ele>59</ele>
        <time>2012-03-06T12:59:22Z</time>
      </trkpt>
      <trkpt lat="49.33142" lon="1.28001">
        <ele>59</ele>
        <time>2012-03-06T12:59:29Z</time>
      </trkpt>
      <trkpt lat="49.33123" lon="1.28003">
        <ele>59</ele>
        <time>2012-03-06T12:59:30Z</time>
      </trkpt>
      <trkpt lat="49.33113" lon="1.28005">
        <ele>59</ele>
        <time>2012-03-06T12:59:31Z</time>
      </trkpt>
      <trkpt lat="49.33123" lon="1.28005">
        <ele>59</ele>
        <time>2012-03-06T12:59:32Z</time>
      </trkpt>
      <trkpt lat="49.33114" lon="1.28012">
        <ele>59</ele>
        <time>2012-03-06T12:59:40Z</time>
      </trkpt>
      <trkpt lat="49.33124" lon="1.28007">
        <ele>59</ele>
        <time>2012-03-06T12:59:48Z</time>
      </trkpt>
      <trkpt lat="49.3312" lon="1.2803">
        <ele>59</ele>
        <time>2012-03-06T12:59:49Z</time>
      </trkpt>
      <trkpt lat="49.33103" lon="1.28023">
        <ele>59</ele>
        <time>2012-03-06T12:59:50Z</time>
      </trkpt>
      <trkpt lat="49.33117" lon="1.28021">
        <ele>59</ele>
        <time>2012-03-06T12:59:51Z</time>
      </trkpt>
      <trkpt lat="49.33104" lon="1.28023">
        <ele>59</ele>
        <time>2012-03-06T12:59:52Z</time>
      </trkpt>
      <trkpt lat="49.33096" lon="1.28016">
        <ele>59</ele>
        <time>2012-03-06T12:59:53Z</time>
      </trkpt>
      <trkpt lat="49.33087" lon="1.28036">
        <ele>59</ele>
        <time>2012-03-06T12:59:54Z</time>
      </trkpt>
      <trkpt lat="49.33103" lon="1.28024">
        <ele>59</ele>
        <time>2012-03-06T12:59:55Z</time>
      </trkpt>
      <trkpt lat="49.33113" lon="1.2803">
        <ele>59</ele>
        <time>2012-03-06T12:59:57Z</time>
      </trkpt>
      <trkpt lat="49.33099" lon="1.28032">
        <ele>59</ele>
        <time>2012-03-06T12:59:58Z</time>
      </trkpt>
      <trkpt lat="49.33108" lon="1.28047">
        <ele>59</ele>
        <time>2012-03-06T13:00:05Z</time>
      </trkpt>
      <trkpt lat="49.3309" lon="1.28044">
        <ele>59</ele>
        <time>2012-03-06T13:00:07Z</time>
      </trkpt>
      <trkpt lat="49.3309" lon="1.28026">
        <ele>59</ele>
        <time>2012-03-06T13:00:08Z</time>
      </trkpt>
      <trkpt lat="49.33106" lon="1.2805">
        <ele>59</ele>
        <time>2012-03-06T13:00:10Z</time>
      </trkpt>
      <trkpt lat="49.33086" lon="1.28048">
        <ele>59</ele>
        <time>2012-03-06T13:00:11Z</time>
      </trkpt>
      <trkpt lat="49.33069" lon="1.2805">
        <ele>59</ele>
        <time>2012-03-06T13:00:13Z</time>
      </trkpt>
      <trkpt lat="49.33094" lon="1.28047">
        <ele>59</ele>
        <time>2012-03-06T13:00:15Z</time>
      </trkpt>
      <trkpt lat="49.3308" lon="1.28049">
        <ele>59</ele>
        <time>2012-03-06T13:00:16Z</time>
      </trkpt>
      <trkpt lat="49.33067" lon="1.28057">
        <ele>59</ele>
        <time>2012-03-06T13:00:24Z</time>
      </trkpt>
      <trkpt lat="49.33054" lon="1.2806">
        <ele>59</ele>
        <time>2012-03-06T13:00:29Z</time>
      </trkpt>
      <trkpt lat="49.33064" lon="1.28076">
        <ele>59</ele>
        <time>2012-03-06T13:00:29Z</time>
      </trkpt>
      <trkpt lat="49.33076" lon="1.28063">
        <ele>59</ele>
        <time>2012-03-06T13:00:30Z</time>
      </trkpt>
      <trkpt lat="49.33059" lon="1.28051">
        <ele>59</ele>
        <time>2012-03-06T13:00:33Z</time>
      </trkpt>
      <trkpt lat="49.33059" lon="1.28029">
        <ele>59</ele>
        <time>2012-03-06T13:00:33Z</time>
      </trkpt>
      <trkpt lat="49.33087" lon="1.28004">
        <ele>59</ele>
        <time>2012-03-06T13:00:36Z</time>
      </trkpt>
      <trkpt lat="49.33077" lon="1.28004">
        <ele>59</ele>
        <time>2012-03-06T13:00:38Z</time>
      </trkpt>
      <trkpt lat="49.33064" lon="1.28017">
        <ele>59</ele>
        <time>2012-03-06T13:00:40Z</time>
      </trkpt>
      <trkpt lat="49.33074" lon="1.28001">
        <ele>59</ele>
        <time>2012-03-06T13:00:40Z</time>
      </trkpt>
      <trkpt lat="49.33052" lon="1.28032">
        <ele>59</ele>
        <time>2012-03-06T13:00:41Z</time>
      </trkpt>
      <trkpt lat="49.33067" lon="1.2802">
        <ele>59</ele>
        <time>2012-03-06T13:00:42Z</time>
      </trkpt>
      <trkpt lat="49.33065" lon="1.28003">
        <ele>59</ele>
        <time>2012-03-06T13:00:45Z</time>
      </trkpt>
      <trkpt lat="49.33066" lon="1.28028">
        <ele>59</ele>
        <time>2012-03-06T13:00:45Z</time>
      </trkpt>
      <trkpt lat="49.33058" lon="1.28041">
        <ele>59</ele>
        <time>2012-03-06T13:00:47Z</time>
      </trkpt>
      <trkpt lat="49.33042" lon="1.28039">
        <ele>59</ele>
        <time>2012-03-06T13:00:48Z</time>
      </trkpt>
      <trkpt lat="49.33033" lon="1.28051">
        <ele>59</ele>
        <time>2012-03-06T13:00:49Z</time>
      </trkpt>
      <trkpt lat="49.33064" lon="1.28025">
        <ele>59</ele>
        <time>2012-03-06T13:00:50Z</time>
      </trkpt>
      <trkpt lat="49.33066" lon="1.27988">
        <ele>59</ele>
        <time>2012-03-06T13:00:52Z</time>
      </trkpt>
      <trkpt lat="49.3305" lon="1.27999">
        <ele>59</ele>
        <time>2012-03-06T13:00:54Z</time>
      </trkpt>
      <trkpt lat="49.33056" lon="1.28038">
        <ele>59</ele>
        <time>2012-03-06T13:00:56Z</time>
      </trkpt>
      <trkpt lat="49.3304" lon="1.28045">
        <ele>59</ele>
        <time>2012-03-06T13:00:57Z</time>
      </trkpt>
      <trkpt lat="49.33038" lon="1.28022">
        <ele>59</ele>
        <time>2012-03-06T13:01:00Z</time>
      </trkpt>
      <trkpt lat="49.33058" lon="1.28018">
        <ele>59</ele>
        <time>2012-03-06T13:01:01Z</time>
      </trkpt>
      <trkpt lat="49.33052" lon="1.28007">
        <ele>59</ele>
        <time>2012-03-06T13:01:02Z</time>
      </trkpt>
      <trkpt lat="49.33039" lon="1.28009">
        <ele>59</ele>
        <time>2012-03-06T13:01:08Z</time>
      </trkpt>
      <trkpt lat="49.3302" lon="1.28014">
        <ele>59</ele>
        <time>2012-03-06T13:01:08Z</time>
      </trkpt>
      <trkpt lat="49.33043" lon="1.28018">
        <ele>59</ele>
        <time>2012-03-06T13:01:10Z</time>
      </trkpt>
      <trkpt lat="49.33035" lon="1.28009">
        <ele>59</ele>
        <time>2012-03-06T13:01:17Z</time>
      </trkpt>
      <trkpt lat="49.3302" lon="1.28009">
        <ele>59</ele>
        <time>2012-03-06T13:01:17Z</time>
      </trkpt>
      <trkpt lat="49.3303" lon="1.27994">
        <ele>59</ele>
        <time>2012-03-06T13:01:21Z</time>
      </trkpt>
      <trkpt lat="49.3302" lon="1.27987">
        <ele>59</ele>
        <time>2012-03-06T13:01:21Z</time>
      </trkpt>
      <trkpt lat="49.33019" lon="1.28001">
        <ele>59</ele>
        <time>2012-03-06T13:01:24Z</time>
      </trkpt>
      <trkpt lat="49.33017" lon="1.27976">
        <ele>59</ele>
        <time>2012-03-06T13:01:25Z</time>
      </trkpt>
      <trkpt lat="49.33016" lon="1.27997">
        <ele>59</ele>
        <time>2012-03-06T13:01:27Z</time>
      </trkpt>
      <trkpt lat="49.33022" lon="1.28011">
        <ele>59</ele>
        <time>2012-03-06T13:01:29Z</time>
      </trkpt>
      <trkpt lat="49.3303" lon="1.28034">
        <ele>59</ele>
        <time>2012-03-06T13:01:31Z</time>
      </trkpt>
      <trkpt lat="49.3302" lon="1.28019">
        <ele>59</ele>
        <time>2012-03-06T13:01:32Z</time>
      </trkpt>
      <trkpt lat="49.33026" lon="1.28036">
        <ele>59</ele>
        <time>2012-03-06T13:01:33Z</time>
      </trkpt>
      <trkpt lat="49.33015" lon="1.28016">
        <ele>59</ele>
        <time>2012-03-06T13:01:33Z</time>
      </trkpt>
      <trkpt lat="49.33022" lon="1.28031">
        <ele>59</ele>
        <time>2012-03-06T13:01:35Z</time>
      </trkpt>
      <trkpt lat="49.33014" lon="1.28021">
        <ele>59</ele>
        <time>2012-03-06T13:01:37Z</time>
      </trkpt>
      <trkpt lat="49.33017" lon="1.28036">
        <ele>59</ele>
        <time>2012-03-06T13:01:40Z</time>
      </trkpt>
      <trkpt lat="49.33" lon="1.28005">
        <ele>59</ele>
        <time>2012-03-06T13:01:41Z</time>
      </trkpt>
      <trkpt lat="49.33008" lon="1.28019">
        <ele>59</ele>
        <time>2012-03-06T13:01:41Z</time>
      </trkpt>
      <trkpt lat="49.32996" lon="1.28007">
        <ele>59</ele>
        <time>2012-03-06T13:01:45Z</time>
      </trkpt>
      <trkpt lat="49.33008" lon="1.28018">
        <ele>59</ele>
        <time>2012-03-06T13:01:46Z</time>
      </trkpt>
      <trkpt lat="49.33016" lon="1.28033">
        <ele>59</ele>
        <time>2012-03-06T13:01:48Z</time>
      </trkpt>
      <trkpt lat="49.32988" lon="1.28018">
        <ele>59</ele>
        <time>2012-03-06T13:01:49Z</time>
      </trkpt>
      <trkpt lat="49.3299" lon="1.28034">
        <ele>59</ele>
        <time>2012-03-06T13:01:56Z</time>
      </trkpt>
      <trkpt lat="49.32989" lon="1.2805">
        <ele>59</ele>
        <time>2012-03-06T13:01:57Z</time>
      </trkpt>
      <trkpt lat="49.33007" lon="1.28039">
        <ele>59</ele>
        <time>2012-03-06T13:02:00Z</time>
      </trkpt>
      <trkpt lat="49.32993" lon="1.28044">
        <ele>59</ele>
        <time>2012-03-06T13:02:01Z</time>
      </trkpt>
      <trkpt lat="49.32996" lon="1.28076">
        <ele>59</ele>
        <time>2012-03-06T13:02:12Z</time>
      </trkpt>
      <trkpt lat="49.32988" lon="1.28046">
        <ele>59</ele>
        <time>2012-03-06T13:02:14Z</time>
      </trkpt>
      <trkpt lat="49.33002" lon="1.28056">
        <ele>59</ele>
        <time>2012-03-06T13:02:15Z</time>
      </trkpt>
      <trkpt lat="49.32993" lon="1.28068">
        <ele>59</ele>
        <time>2012-03-06T13:02:16Z</time>
      </trkpt>
      <trkpt lat="49.32987" lon="1.28053">
        <ele>59</ele>
        <time>2012-03-06T13:02:18Z</time>
      </trkpt>
      <trkpt lat="49.32966" lon="1.28042">
        <ele>59</ele>
        <time>2012-03-06T13:02:20Z</time>
      </trkpt>
      <trkpt lat="49.3298" lon="1.28072">
        <ele>59</ele>
        <time>2012-03-06T13:02:23Z</time>
      </trkpt>
      <trkpt lat="49.32973" lon="1.28062">
        <ele>59</ele>
        <time>2012-03-06T13:02:24Z</time>
      </trkpt>
      <trkpt lat="49.32983" lon="1.28042">
        <ele>59</ele>
        <time>2012-03-06T13:02:28Z</time>
      </trkpt>
      <trkpt lat="49.32996" lon="1.28071">
        <ele>59</ele>
        <time>2012-03-06T13:02:36Z</time>
      </trkpt>
      <trkpt lat="49.32998" lon="1.28048">
        <ele>59</ele>
        <time>2012-03-06T13:02:38Z</time>
      </trkpt>
      <trkpt lat="49.32992" lon="1.2807">
        <ele>59</ele>
        <time>2012-03-06T13:02:39Z</time>
      </trkpt>
      <trkpt lat="49.32996" lon="1.28055">
        <ele>59</ele>
        <time>2012-03-06T13:02:41Z</time>
      </trkpt>
      <trkpt lat="49.32984" lon="1.28079">
        <ele>59</ele>
        <time>2012-03-06T13:02:42Z</time>
      </trkpt>
      <trkpt lat="49.32992" lon="1.28048">
        <ele>59</ele>
        <time>2012-03-06T13:02:45Z</time>
      </trkpt>
      <trkpt lat="49.32984" lon="1.28057">
        <ele>59</ele>
        <time>2012-03-06T13:02:46Z</time>
      </trkpt>
      <trkpt lat="49.32978" lon="1.28078">
        <ele>59</ele>
        <time>2012-03-06T13:02:47Z</time>
      </trkpt>
      <trkpt lat="49.32973" lon="1.2805">
        <ele>59</ele>
        <time>2012-03-06T13:02:48Z</time>
      </trkpt>
      <trkpt lat="49.32978" lon="1.28072">
        <ele>59</ele>
        <time>2012-03-06T13:02:49Z</time>
      </trkpt>
      <trkpt lat="49.32971" lon="1.28081">
        <ele>59</ele>
        <time>2012-03-06T13:02:51Z</time>
      </trkpt>
      <trkpt lat="49.32978" lon="1.28068">
        <ele>59</ele>
        <time>2012-03-06T13:02:53Z</time>
      </trkpt>
      <trkpt lat="49.3299" lon="1.28094">
        <ele>59</ele>
        <time>2012-03-06T13:02:59Z</time>
      </trkpt>
      <trkpt lat="49.32987" lon="1.28075">
        <ele>59</ele>
        <time>2012-03-06T13:03:00Z</time>
      </trkpt>
      <trkpt lat="49.32991" lon="1.28095">
        <ele>59</ele>
        <time>2012-03-06T13:03:01Z</time>
      </trkpt>
      <trkpt lat="49.32977" lon="1.28079">
        <ele>59</ele>
        <time>2012-03-06T13:03:02Z</time>
      </trkpt>
      <trkpt lat="49.32966" lon="1.28111">
        <ele>59</ele>
        <time>2012-03-06T13:03:05Z</time>
      </trkpt>
      <trkpt lat="49.32975" lon="1.28082">
        <ele>59</ele>
        <time>2012-03-06T13:03:06Z</time>
      </trkpt>
      <trkpt lat="49.32979" lon="1.28098">
        <ele>59</ele>
        <time>2012-03-06T13:03:13Z</time>
      </trkpt>
      <trkpt lat="49.32971" lon="1.28085">
        <ele>59</ele>
        <time>2012-03-06T13:03:17Z</time>
      </trkpt>
      <trkpt lat="49.32983" lon="1.28075">
        <ele>59</ele>
        <time>2012-03-06T13:03:18Z</time>
      </trkpt>
      <trkpt lat="49.32976" lon="1.28095">
        <ele>59</ele>
        <time>2012-03-06T13:03:19Z</time>
      </trkpt>
      <trkpt lat="49.32983" lon="1.28079">
        <ele>59</ele>
        <time>2012-03-06T13:03:20Z</time>
      </trkpt>
      <trkpt lat="49.32979" lon="1.28054">
        <ele>59</ele>
        <time>2012-03-06T13:03:21Z</time>
      </trkpt>
      <trkpt lat="49.32986" lon="1.28068">
        <ele>59</ele>
        <time>2012-03-06T13:03:22Z</time>
      </trkpt>
      <trkpt lat="49.32992" lon="1.28104">
        <ele>24</ele>
        <time>2012-03-06T13:03:26Z</time>
      </trkpt>
      <trkpt lat="49.32999" lon="1.28095">
        <ele>-11</ele>
        <time>2012-03-06T13:03:31Z</time>
      </trkpt>
      <trkpt lat="49.3299" lon="1.28105">
        <ele>9</ele>
        <time>2012-03-06T13:03:34Z</time>
      </trkpt>
      <trkpt lat="49.32981" lon="1.28111">
        <ele>19</ele>
        <time>2012-03-06T13:03:42Z</time>
      </trkpt>
      <trkpt lat="49.32975" lon="1.28122">
        <ele>19</ele>
        <time>2012-03-06T13:03:52Z</time>
      </trkpt>
      <trkpt lat="49.32968" lon="1.2813">
        <ele>19</ele>
        <time>2012-03-06T13:04:01Z</time>
      </trkpt>
      <trkpt lat="49.32959" lon="1.28134">
        <ele>25</ele>
        <time>2012-03-06T13:04:12Z</time>
      </trkpt>
      <trkpt lat="49.32951" lon="1.28128">
        <ele>38</ele>
        <time>2012-03-06T13:04:25Z</time>
      </trkpt>
      <trkpt lat="49.32943" lon="1.2812">
        <ele>44</ele>
        <time>2012-03-06T13:04:34Z</time>
      </trkpt>
      <trkpt lat="49.32938" lon="1.28108">
        <ele>44</ele>
        <time>2012-03-06T13:04:42Z</time>
      </trkpt>
      <trkpt lat="49.32931" lon="1.28098">
        <ele>44</ele>
        <time>2012-03-06T13:04:52Z</time>
      </trkpt>
      <trkpt lat="49.32922" lon="1.28091">
        <ele>44</ele>
        <time>2012-03-06T13:05:01Z</time>
      </trkpt>
      <trkpt lat="49.32914" lon="1.28085">
        <ele>44</ele>
        <time>2012-03-06T13:05:10Z</time>
      </trkpt>
      <trkpt lat="49.32905" lon="1.28077">
        <ele>44</ele>
        <time>2012-03-06T13:05:20Z</time>
      </trkpt>
      <trkpt lat="49.32897" lon="1.28069">
        <ele>44</ele>
        <time>2012-03-06T13:05:30Z</time>
      </trkpt>
      <trkpt lat="49.32887" lon="1.28063">
        <ele>44</ele>
        <time>2012-03-06T13:05:38Z</time>
      </trkpt>
      <trkpt lat="49.32878" lon="1.28056">
        <ele>44</ele>
        <time>2012-03-06T13:05:51Z</time>
      </trkpt>
      <trkpt lat="49.3287" lon="1.28049">
        <ele>44</ele>
        <time>2012-03-06T13:06:01Z</time>
      </trkpt>
      <trkpt lat="49.32865" lon="1.28035">
        <ele>52</ele>
        <time>2012-03-06T13:06:13Z</time>
      </trkpt>
      <trkpt lat="49.32859" lon="1.28024">
        <ele>52</ele>
        <time>2012-03-06T13:06:26Z</time>
      </trkpt>
      <trkpt lat="49.32853" lon="1.28014">
        <ele>59</ele>
        <time>2012-03-06T13:06:36Z</time>
      </trkpt>
      <trkpt lat="49.32845" lon="1.28005">
        <ele>59</ele>
        <time>2012-03-06T13:06:47Z</time>
      </trkpt>
      <trkpt lat="49.32841" lon="1.27991">
        <ele>67</ele>
        <time>2012-03-06T13:06:57Z</time>
      </trkpt>
      <trkpt lat="49.32834" lon="1.2798">
        <ele>67</ele>
        <time>2012-03-06T13:07:07Z</time>
      </trkpt>
      <trkpt lat="49.32825" lon="1.2797">
        <ele>61</ele>
        <time>2012-03-06T13:07:15Z</time>
      </trkpt>
      <trkpt lat="49.32817" lon="1.27964">
        <ele>61</ele>
        <time>2012-03-06T13:07:24Z</time>
      </trkpt>
      <trkpt lat="49.3281" lon="1.27956">
        <ele>61</ele>
        <time>2012-03-06T13:07:34Z</time>
      </trkpt>
      <trkpt lat="49.32802" lon="1.27948">
        <ele>61</ele>
        <time>2012-03-06T13:07:46Z</time>
      </trkpt>
      <trkpt lat="49.32793" lon="1.27944">
        <ele>61</ele>
        <time>2012-03-06T13:07:56Z</time>
      </trkpt>
      <trkpt lat="49.32783" lon="1.27941">
        <ele>61</ele>
        <time>2012-03-06T13:08:08Z</time>
      </trkpt>
      <trkpt lat="49.32773" lon="1.27939">
        <ele>61</ele>
        <time>2012-03-06T13:08:19Z</time>
      </trkpt>
      <trkpt lat="49.32763" lon="1.27937">
        <ele>72</ele>
        <time>2012-03-06T13:08:38Z</time>
      </trkpt>
      <trkpt lat="49.32753" lon="1.27939">
        <ele>72</ele>
        <time>2012-03-06T13:08:47Z</time>
      </trkpt>
      <trkpt lat="49.32743" lon="1.27938">
        <ele>72</ele>
        <time>2012-03-06T13:09:02Z</time>
      </trkpt>
      <trkpt lat="49.32733" lon="1.27934">
        <ele>81</ele>
        <time>2012-03-06T13:09:13Z</time>
      </trkpt>
      <trkpt lat="49.32724" lon="1.27931">
        <ele>81</ele>
        <time>2012-03-06T13:09:22Z</time>
      </trkpt>
      <trkpt lat="49.32715" lon="1.27926">
        <ele>81</ele>
        <time>2012-03-06T13:09:34Z</time>
      </trkpt>
      <trkpt lat="49.32706" lon="1.2792">
        <ele>81</ele>
        <time>2012-03-06T13:09:43Z</time>
      </trkpt>
      <trkpt lat="49.32697" lon="1.2792">
        <ele>81</ele>
        <time>2012-03-06T13:09:50Z</time>
      </trkpt>
      <trkpt lat="49.32688" lon="1.27917">
        <ele>81</ele>
        <time>2012-03-06T13:09:59Z</time>
      </trkpt>
      <trkpt lat="49.32678" lon="1.27914">
        <ele>81</ele>
        <time>2012-03-06T13:10:14Z</time>
      </trkpt>
      <trkpt lat="49.32668" lon="1.2791">
        <ele>86</ele>
        <time>2012-03-06T13:10:28Z</time>
      </trkpt>
      <trkpt lat="49.32659" lon="1.27908">
        <ele>86</ele>
        <time>2012-03-06T13:10:39Z</time>
      </trkpt>
      <trkpt lat="49.32649" lon="1.27908">
        <ele>86</ele>
        <time>2012-03-06T13:10:53Z</time>
      </trkpt>
      <trkpt lat="49.3264" lon="1.27908">
        <ele>86</ele>
        <time>2012-03-06T13:10:59Z</time>
      </trkpt>
      <trkpt lat="49.3263" lon="1.27905">
        <ele>86</ele>
        <time>2012-03-06T13:11:09Z</time>
      </trkpt>
      <trkpt lat="49.32622" lon="1.27898">
        <ele>86</ele>
        <time>2012-03-06T13:11:16Z</time>
      </trkpt>
      <trkpt lat="49.32612" lon="1.27896">
        <ele>86</ele>
        <time>2012-03-06T13:11:27Z</time>
      </trkpt>
      <trkpt lat="49.32603" lon="1.27892">
        <ele>91</ele>
        <time>2012-03-06T13:11:35Z</time>
      </trkpt>
      <trkpt lat="49.32595" lon="1.27885">
        <ele>102</ele>
        <time>2012-03-06T13:11:50Z</time>
      </trkpt>
      <trkpt lat="49.32587" lon="1.27875">
        <ele>102</ele>
        <time>2012-03-06T13:12:00Z</time>
      </trkpt>
      <trkpt lat="49.32582" lon="1.27863">
        <ele>102</ele>
        <time>2012-03-06T13:12:10Z</time>
      </trkpt>
      <trkpt lat="49.32574" lon="1.27855">
        <ele>102</ele>
        <time>2012-03-06T13:12:18Z</time>
      </trkpt>
      <trkpt lat="49.32565" lon="1.27848">
        <ele>102</ele>
        <time>2012-03-06T13:12:28Z</time>
      </trkpt>
      <trkpt lat="49.3256" lon="1.27837">
        <ele>102</ele>
        <time>2012-03-06T13:12:39Z</time>
      </trkpt>
      <trkpt lat="49.32555" lon="1.27824">
        <ele>102</ele>
        <time>2012-03-06T13:12:49Z</time>
      </trkpt>
      <trkpt lat="49.32547" lon="1.27814">
        <ele>102</ele>
        <time>2012-03-06T13:12:57Z</time>
      </trkpt>
      <trkpt lat="49.32541" lon="1.27803">
        <ele>102</ele>
        <time>2012-03-06T13:13:06Z</time>
      </trkpt>
      <trkpt lat="49.32536" lon="1.27791">
        <ele>108</ele>
        <time>2012-03-06T13:13:16Z</time>
      </trkpt>
      <trkpt lat="49.32528" lon="1.27783">
        <ele>108</ele>
        <time>2012-03-06T13:13:26Z</time>
      </trkpt>
      <trkpt lat="49.32522" lon="1.2777">
        <ele>108</ele>
        <time>2012-03-06T13:13:36Z</time>
      </trkpt>
      <trkpt lat="49.32514" lon="1.27763">
        <ele>108</ele>
        <time>2012-03-06T13:13:42Z</time>
      </trkpt>
      <trkpt lat="49.32508" lon="1.27751">
        <ele>108</ele>
        <time>2012-03-06T13:13:54Z</time>
      </trkpt>
      <trkpt lat="49.32501" lon="1.27741">
        <ele>108</ele>
        <time>2012-03-06T13:14:04Z</time>
      </trkpt>
      <trkpt lat="49.32492" lon="1.27738">
        <ele>108</ele>
        <time>2012-03-06T13:14:13Z</time>
      </trkpt>
      <trkpt lat="49.32483" lon="1.27736">
        <ele>108</ele>
        <time>2012-03-06T13:14:22Z</time>
      </trkpt>
      <trkpt lat="49.32473" lon="1.27732">
        <ele>108</ele>
        <time>2012-03-06T13:14:30Z</time>
      </trkpt>
      <trkpt lat="49.32464" lon="1.2773">
        <ele>108</ele>
        <time>2012-03-06T13:14:39Z</time>
      </trkpt>
      <trkpt lat="49.32455" lon="1.27726">
        <ele>108</ele>
        <time>2012-03-06T13:14:48Z</time>
      </trkpt>
      <trkpt lat="49.32445" lon="1.27723">
        <ele>108</ele>
        <time>2012-03-06T13:14:57Z</time>
      </trkpt>
      <trkpt lat="49.32436" lon="1.27719">
        <ele>108</ele>
        <time>2012-03-06T13:15:05Z</time>
      </trkpt>
      <trkpt lat="49.32426" lon="1.27717">
        <ele>108</ele>
        <time>2012-03-06T13:15:15Z</time>
      </trkpt>
      <trkpt lat="49.32417" lon="1.27711">
        <ele>108</ele>
        <time>2012-03-06T13:15:23Z</time>
      </trkpt>
      <trkpt lat="49.32407" lon="1.27705">
        <ele>108</ele>
        <time>2012-03-06T13:15:31Z</time>
      </trkpt>
      <trkpt lat="49.324" lon="1.27694">
        <ele>108</ele>
        <time>2012-03-06T13:15:40Z</time>
      </trkpt>
      <trkpt lat="49.32398" lon="1.2768">
        <ele>108</ele>
        <time>2012-03-06T13:15:49Z</time>
      </trkpt>
      <trkpt lat="49.32393" lon="1.27669">
        <ele>115</ele>
        <time>2012-03-06T13:15:56Z</time>
      </trkpt>
      <trkpt lat="49.32384" lon="1.27664">
        <ele>115</ele>
        <time>2012-03-06T13:16:05Z</time>
      </trkpt>
      <trkpt lat="49.32378" lon="1.27652">
        <ele>109</ele>
        <time>2012-03-06T13:16:14Z</time>
      </trkpt>
      <trkpt lat="49.32369" lon="1.27647">
        <ele>109</ele>
        <time>2012-03-06T13:16:22Z</time>
      </trkpt>
      <trkpt lat="49.32362" lon="1.27638">
        <ele>109</ele>
        <time>2012-03-06T13:16:28Z</time>
      </trkpt>
      <trkpt lat="49.32357" lon="1.27626">
        <ele>109</ele>
        <time>2012-03-06T13:16:38Z</time>
      </trkpt>
      <trkpt lat="49.32349" lon="1.27618">
        <ele>109</ele>
        <time>2012-03-06T13:16:47Z</time>
      </trkpt>
      <trkpt lat="49.32343" lon="1.27608">
        <ele>117</ele>
        <time>2012-03-06T13:16:59Z</time>
      </trkpt>
      <trkpt lat="49.32333" lon="1.27606">
        <ele>117</ele>
        <time>2012-03-06T13:17:06Z</time>
      </trkpt>
      <trkpt lat="49.32325" lon="1.27601">
        <ele>117</ele>
        <time>2012-03-06T13:17:17Z</time>
      </trkpt>
      <trkpt lat="49.32315" lon="1.27598">
        <ele>123</ele>
        <time>2012-03-06T13:17:26Z</time>
      </trkpt>
      <trkpt lat="49.32306" lon="1.27592">
        <ele>123</ele>
        <time>2012-03-06T13:17:36Z</time>
      </trkpt>
      <trkpt lat="49.32297" lon="1.2759">
        <ele>118</ele>
        <time>2012-03-06T13:17:43Z</time>
      </trkpt>
      <trkpt lat="49.32288" lon="1.27584">
        <ele>110</ele>
        <time>2012-03-06T13:17:52Z</time>
      </trkpt>
      <trkpt lat="49.32278" lon="1.27581">
        <ele>110</ele>
        <time>2012-03-06T13:17:59Z</time>
      </trkpt>
      <trkpt lat="49.32271" lon="1.27572">
        <ele>124</ele>
        <time>2012-03-06T13:18:14Z</time>
      </trkpt>
      <trkpt lat="49.32262" lon="1.27567">
        <ele>124</ele>
        <time>2012-03-06T13:18:24Z</time>
      </trkpt>
      <trkpt lat="49.32252" lon="1.27564">
        <ele>116</ele>
        <time>2012-03-06T13:18:31Z</time>
      </trkpt>
      <trkpt lat="49.32241" lon="1.27562">
        <ele>116</ele>
        <time>2012-03-06T13:18:41Z</time>
      </trkpt>
      <trkpt lat="49.32232" lon="1.27558">
        <ele>116</ele>
        <time>2012-03-06T13:18:47Z</time>
      </trkpt>
      <trkpt lat="49.32223" lon="1.27552">
        <ele>126</ele>
        <time>2012-03-06T13:18:59Z</time>
      </trkpt>
      <trkpt lat="49.32214" lon="1.27548">
        <ele>126</ele>
        <time>2012-03-06T13:19:08Z</time>
      </trkpt>
      <trkpt lat="49.32205" lon="1.27542">
        <ele>126</ele>
        <time>2012-03-06T13:19:21Z</time>
      </trkpt>
      <trkpt lat="49.32195" lon="1.27542">
        <ele>126</ele>
        <time>2012-03-06T13:19:27Z</time>
      </trkpt>
      <trkpt lat="49.32185" lon="1.2754">
        <ele>126</ele>
        <time>2012-03-06T13:19:35Z</time>
      </trkpt>
      <trkpt lat="49.32175" lon="1.27537">
        <ele>126</ele>
        <time>2012-03-06T13:19:44Z</time>
      </trkpt>
      <trkpt lat="49.32166" lon="1.27535">
        <ele>126</ele>
        <time>2012-03-06T13:19:51Z</time>
      </trkpt>
      <trkpt lat="49.32157" lon="1.27526">
        <ele>126</ele>
        <time>2012-03-06T13:20:00Z</time>
      </trkpt>
      <trkpt lat="49.32153" lon="1.27513">
        <ele>126</ele>
        <time>2012-03-06T13:20:14Z</time>
      </trkpt>
      <trkpt lat="49.32144" lon="1.27506">
        <ele>126</ele>
        <time>2012-03-06T13:20:21Z</time>
      </trkpt>
      <trkpt lat="49.32135" lon="1.27502">
        <ele>119</ele>
        <time>2012-03-06T13:20:28Z</time>
      </trkpt>
      <trkpt lat="49.32127" lon="1.27494">
        <ele>119</ele>
        <time>2012-03-06T13:20:34Z</time>
      </trkpt>
      <trkpt lat="49.32121" lon="1.27483">
        <ele>119</ele>
        <time>2012-03-06T13:20:42Z</time>
      </trkpt>
      <trkpt lat="49.32117" lon="1.2747">
        <ele>119</ele>
        <time>2012-03-06T13:20:49Z</time>
      </trkpt>
      <trkpt lat="49.32109" lon="1.27463">
        <ele>119</ele>
        <time>2012-03-06T13:20:58Z</time>
      </trkpt>
      <trkpt lat="49.32102" lon="1.27455">
        <ele>119</ele>
        <time>2012-03-06T13:21:08Z</time>
      </trkpt>
      <trkpt lat="49.32094" lon="1.27445">
        <ele>125</ele>
        <time>2012-03-06T13:21:19Z</time>
      </trkpt>
      <trkpt lat="49.32089" lon="1.27433">
        <ele>130</ele>
        <time>2012-03-06T13:21:29Z</time>
      </trkpt>
      <trkpt lat="49.32081" lon="1.27423">
        <ele>130</ele>
        <time>2012-03-06T13:21:36Z</time>
      </trkpt>
      <trkpt lat="49.32074" lon="1.27413">
        <ele>130</ele>
        <time>2012-03-06T13:21:46Z</time>
      </trkpt>
      <trkpt lat="49.32069" lon="1.27401">
        <ele>130</ele>
        <time>2012-03-06T13:21:56Z</time>
      </trkpt>
      <trkpt lat="49.32059" lon="1.27397">
        <ele>130</ele>
        <time>2012-03-06T13:22:06Z</time>
      </trkpt>
      <trkpt lat="49.3205" lon="1.27394">
        <ele>130</ele>
        <time>2012-03-06T13:22:12Z</time>
      </trkpt>
      <trkpt lat="49.32044" lon="1.27383">
        <ele>130</ele>
        <time>2012-03-06T13:22:24Z</time>
      </trkpt>
      <trkpt lat="49.32036" lon="1.27373">
        <ele>136</ele>
        <time>2012-03-06T13:22:38Z</time>
      </trkpt>
      <trkpt lat="49.32028" lon="1.27369">
        <ele>136</ele>
        <time>2012-03-06T13:22:44Z</time>
      </trkpt>
      <trkpt lat="49.32018" lon="1.27368">
        <ele>136</ele>
        <time>2012-03-06T13:22:52Z</time>
      </trkpt>
      <trkpt lat="49.32008" lon="1.27359">
        <ele>136</ele>
        <time>2012-03-06T13:23:01Z</time>
      </trkpt>
      <trkpt lat="49.32" lon="1.27351">
        <ele>136</ele>
        <time>2012-03-06T13:23:12Z</time>
      </trkpt>
      <trkpt lat="49.31992" lon="1.27344">
        <ele>130</ele>
        <time>2012-03-06T13:23:19Z</time>
      </trkpt>
      <trkpt lat="49.31983" lon="1.27337">
        <ele>130</ele>
        <time>2012-03-06T13:23:31Z</time>
      </trkpt>
      <trkpt lat="49.31975" lon="1.27333">
        <ele>138</ele>
        <time>2012-03-06T13:23:39Z</time>
      </trkpt>
      <trkpt lat="49.31965" lon="1.27328">
        <ele>138</ele>
        <time>2012-03-06T13:23:45Z</time>
      </trkpt>
      <trkpt lat="49.31956" lon="1.27324">
        <ele>138</ele>
        <time>2012-03-06T13:23:52Z</time>
      </trkpt>
      <trkpt lat="49.31947" lon="1.27317">
        <ele>132</ele>
        <time>2012-03-06T13:24:03Z</time>
      </trkpt>
      <trkpt lat="49.31938" lon="1.2731">
        <ele>132</ele>
        <time>2012-03-06T13:24:11Z</time>
      </trkpt>
      <trkpt lat="49.31929" lon="1.27304">
        <ele>132</ele>
        <time>2012-03-06T13:24:18Z</time>
      </trkpt>
      <trkpt lat="49.31921" lon="1.27295">
        <ele>132</ele>
        <time>2012-03-06T13:24:28Z</time>
      </trkpt>
      <trkpt lat="49.31913" lon="1.27286">
        <ele>132</ele>
        <time>2012-03-06T13:24:38Z</time>
      </trkpt>
      <trkpt lat="49.31905" lon="1.2728">
        <ele>132</ele>
        <time>2012-03-06T13:24:46Z</time>
      </trkpt>
      <trkpt lat="49.31895" lon="1.27272">
        <ele>132</ele>
        <time>2012-03-06T13:24:54Z</time>
      </trkpt>
      <trkpt lat="49.31889" lon="1.27261">
        <ele>137</ele>
        <time>2012-03-06T13:25:04Z</time>
      </trkpt>
      <trkpt lat="49.3188" lon="1.27254">
        <ele>137</ele>
        <time>2012-03-06T13:25:14Z</time>
      </trkpt>
      <trkpt lat="49.31869" lon="1.2725">
        <ele>137</ele>
        <time>2012-03-06T13:25:22Z</time>
      </trkpt>
      <trkpt lat="49.31861" lon="1.27243">
        <ele>137</ele>
        <time>2012-03-06T13:25:31Z</time>
      </trkpt>
      <trkpt lat="49.31852" lon="1.27238">
        <ele>128</ele>
        <time>2012-03-06T13:25:38Z</time>
      </trkpt>
      <trkpt lat="49.31842" lon="1.27235">
        <ele>128</ele>
        <time>2012-03-06T13:25:44Z</time>
      </trkpt>
      <trkpt lat="49.31835" lon="1.27223">
        <ele>120</ele>
        <time>2012-03-06T13:25:52Z</time>
      </trkpt>
      <trkpt lat="49.31828" lon="1.27211">
        <ele>120</ele>
        <time>2012-03-06T13:26:01Z</time>
      </trkpt>
      <trkpt lat="49.31821" lon="1.27201">
        <ele>120</ele>
        <time>2012-03-06T13:26:12Z</time>
      </trkpt>
      <trkpt lat="49.31815" lon="1.27191">
        <ele>130</ele>
        <time>2012-03-06T13:26:20Z</time>
      </trkpt>
      <trkpt lat="49.31807" lon="1.27183">
        <ele>130</ele>
        <time>2012-03-06T13:26:29Z</time>
      </trkpt>
      <trkpt lat="49.31799" lon="1.27175">
        <ele>130</ele>
        <time>2012-03-06T13:26:36Z</time>
      </trkpt>
      <trkpt lat="49.3179" lon="1.27169">
        <ele>136</ele>
        <time>2012-03-06T13:26:46Z</time>
      </trkpt>
      <trkpt lat="49.3178" lon="1.27166">
        <ele>136</ele>
        <time>2012-03-06T13:26:53Z</time>
      </trkpt>
      <trkpt lat="49.31771" lon="1.27157">
        <ele>136</ele>
        <time>2012-03-06T13:27:04Z</time>
      </trkpt>
      <trkpt lat="49.31763" lon="1.27147">
        <ele>136</ele>
        <time>2012-03-06T13:27:16Z</time>
      </trkpt>
      <trkpt lat="49.31755" lon="1.27139">
        <ele>136</ele>
        <time>2012-03-06T13:27:24Z</time>
      </trkpt>
      <trkpt lat="49.31749" lon="1.27129">
        <ele>136</ele>
        <time>2012-03-06T13:27:34Z</time>
      </trkpt>
      <trkpt lat="49.31743" lon="1.27118">
        <ele>136</ele>
        <time>2012-03-06T13:27:44Z</time>
      </trkpt>
      <trkpt lat="49.31734" lon="1.27112">
        <ele>136</ele>
        <time>2012-03-06T13:27:55Z</time>
      </trkpt>
      <trkpt lat="49.31726" lon="1.27107">
        <ele>136</ele>
        <time>2012-03-06T13:28:01Z</time>
      </trkpt>
      <trkpt lat="49.31716" lon="1.27104">
        <ele>136</ele>
        <time>2012-03-06T13:28:07Z</time>
      </trkpt>
      <trkpt lat="49.31707" lon="1.27099">
        <ele>136</ele>
        <time>2012-03-06T13:28:15Z</time>
      </trkpt>
      <trkpt lat="49.31698" lon="1.27095">
        <ele>136</ele>
        <time>2012-03-06T13:28:28Z</time>
      </trkpt>
      <trkpt lat="49.31689" lon="1.27092">
        <ele>136</ele>
        <time>2012-03-06T13:28:34Z</time>
      </trkpt>
      <trkpt lat="49.3168" lon="1.27087">
        <ele>136</ele>
        <time>2012-03-06T13:28:46Z</time>
      </trkpt>
      <trkpt lat="49.31673" lon="1.27079">
        <ele>143</ele>
        <time>2012-03-06T13:28:58Z</time>
      </trkpt>
      <trkpt lat="49.31664" lon="1.27072">
        <ele>143</ele>
        <time>2012-03-06T13:29:07Z</time>
      </trkpt>
      <trkpt lat="49.31655" lon="1.27066">
        <ele>143</ele>
        <time>2012-03-06T13:29:14Z</time>
      </trkpt>
      <trkpt lat="49.31646" lon="1.2706">
        <ele>143</ele>
        <time>2012-03-06T13:29:21Z</time>
      </trkpt>
      <trkpt lat="49.31637" lon="1.27057">
        <ele>131</ele>
        <time>2012-03-06T13:29:26Z</time>
      </trkpt>
      <trkpt lat="49.31629" lon="1.2705">
        <ele>131</ele>
        <time>2012-03-06T13:29:33Z</time>
      </trkpt>
      <trkpt lat="49.3162" lon="1.27044">
        <ele>131</ele>
        <time>2012-03-06T13:29:42Z</time>
      </trkpt>
      <trkpt lat="49.3161" lon="1.27042">
        <ele>131</ele>
        <time>2012-03-06T13:29:51Z</time>
      </trkpt>
      <trkpt lat="49.316" lon="1.27043">
        <ele>131</ele>
        <time>2012-03-06T13:30:03Z</time>
      </trkpt>
      <trkpt lat="49.31591" lon="1.27048">
        <ele>125</ele>
        <time>2012-03-06T13:30:18Z</time>
      </trkpt>
      <trkpt lat="49.31582" lon="1.27051">
        <ele>125</ele>
        <time>2012-03-06T13:31:03Z</time>
      </trkpt>
      <trkpt lat="49.3158" lon="1.27038">
        <ele>131</ele>
        <time>2012-03-06T13:34:31Z</time>
      </trkpt>
      <trkpt lat="49.3157" lon="1.27036">
        <ele>131</ele>
        <time>2012-03-06T13:34:42Z</time>
      </trkpt>
      <trkpt lat="49.3156" lon="1.27035">
        <ele>131</ele>
        <time>2012-03-06T13:34:51Z</time>
      </trkpt>
      <trkpt lat="49.3155" lon="1.27035">
        <ele>131</ele>
        <time>2012-03-06T13:35:02Z</time>
      </trkpt>
      <trkpt lat="49.3154" lon="1.27038">
        <ele>131</ele>
        <time>2012-03-06T13:35:13Z</time>
      </trkpt>
      <trkpt lat="49.3153" lon="1.27041">
        <ele>131</ele>
        <time>2012-03-06T13:35:23Z</time>
      </trkpt>
      <trkpt lat="49.31521" lon="1.27042">
        <ele>131</ele>
        <time>2012-03-06T13:35:32Z</time>
      </trkpt>
      <trkpt lat="49.31511" lon="1.27045">
        <ele>131</ele>
        <time>2012-03-06T13:35:43Z</time>
      </trkpt>
      <trkpt lat="49.31501" lon="1.27047">
        <ele>131</ele>
        <time>2012-03-06T13:35:52Z</time>
      </trkpt>
      <trkpt lat="49.31492" lon="1.27049">
        <ele>131</ele>
        <time>2012-03-06T13:36:01Z</time>
      </trkpt>
      <trkpt lat="49.31482" lon="1.27051">
        <ele>131</ele>
        <time>2012-03-06T13:36:10Z</time>
      </trkpt>
      <trkpt lat="49.31473" lon="1.27053">
        <ele>131</ele>
        <time>2012-03-06T13:36:20Z</time>
      </trkpt>
      <trkpt lat="49.31463" lon="1.27055">
        <ele>131</ele>
        <time>2012-03-06T13:36:30Z</time>
      </trkpt>
      <trkpt lat="49.31454" lon="1.27058">
        <ele>131</ele>
        <time>2012-03-06T13:36:39Z</time>
      </trkpt>
      <trkpt lat="49.31444" lon="1.2706">
        <ele>131</ele>
        <time>2012-03-06T13:36:49Z</time>
      </trkpt>
      <trkpt lat="49.31434" lon="1.27061">
        <ele>131</ele>
        <time>2012-03-06T13:36:58Z</time>
      </trkpt>
      <trkpt lat="49.31424" lon="1.27063">
        <ele>131</ele>
        <time>2012-03-06T13:37:08Z</time>
      </trkpt>
      <trkpt lat="49.31414" lon="1.27065">
        <ele>131</ele>
        <time>2012-03-06T13:37:18Z</time>
      </trkpt>
      <trkpt lat="49.31404" lon="1.27068">
        <ele>131</ele>
        <time>2012-03-06T13:37:28Z</time>
      </trkpt>
      <trkpt lat="49.31395" lon="1.27069">
        <ele>131</ele>
        <time>2012-03-06T13:37:37Z</time>
      </trkpt>
      <trkpt lat="49.31386" lon="1.27071">
        <ele>131</ele>
        <time>2012-03-06T13:37:46Z</time>
      </trkpt>
      <trkpt lat="49.31376" lon="1.27073">
        <ele>131</ele>
        <time>2012-03-06T13:37:55Z</time>
      </trkpt>
      <trkpt lat="49.31367" lon="1.27074">
        <ele>131</ele>
        <time>2012-03-06T13:38:04Z</time>
      </trkpt>
      <trkpt lat="49.31357" lon="1.27076">
        <ele>131</ele>
        <time>2012-03-06T13:38:14Z</time>
      </trkpt>
      <trkpt lat="49.31347" lon="1.27078">
        <ele>131</ele>
        <time>2012-03-06T13:38:24Z</time>
      </trkpt>
      <trkpt lat="49.31337" lon="1.27078">
        <ele>131</ele>
        <time>2012-03-06T13:38:33Z</time>
      </trkpt>
      <trkpt lat="49.31328" lon="1.27079">
        <ele>137</ele>
        <time>2012-03-06T13:38:42Z</time>
      </trkpt>
      <trkpt lat="49.31318" lon="1.27079">
        <ele>137</ele>
        <time>2012-03-06T13:38:52Z</time>
      </trkpt>
      <trkpt lat="49.31308" lon="1.2708">
        <ele>137</ele>
        <time>2012-03-06T13:39:02Z</time>
      </trkpt>
      <trkpt lat="49.31298" lon="1.27081">
        <ele>137</ele>
        <time>2012-03-06T13:39:12Z</time>
      </trkpt>
      <trkpt lat="49.31289" lon="1.27081">
        <ele>137</ele>
        <time>2012-03-06T13:39:21Z</time>
      </trkpt>
      <trkpt lat="49.31279" lon="1.27083">
        <ele>137</ele>
        <time>2012-03-06T13:39:30Z</time>
      </trkpt>
      <trkpt lat="49.31269" lon="1.27085">
        <ele>137</ele>
        <time>2012-03-06T13:39:39Z</time>
      </trkpt>
      <trkpt lat="49.3126" lon="1.27086">
        <ele>137</ele>
        <time>2012-03-06T13:39:48Z</time>
      </trkpt>
      <trkpt lat="49.3125" lon="1.27087">
        <ele>142</ele>
        <time>2012-03-06T13:39:57Z</time>
      </trkpt>
      <trkpt lat="49.31241" lon="1.27091">
        <ele>142</ele>
        <time>2012-03-06T13:40:06Z</time>
      </trkpt>
      <trkpt lat="49.31232" lon="1.27096">
        <ele>142</ele>
        <time>2012-03-06T13:40:15Z</time>
      </trkpt>
      <trkpt lat="49.31224" lon="1.27104">
        <ele>142</ele>
        <time>2012-03-06T13:40:24Z</time>
      </trkpt>
      <trkpt lat="49.31214" lon="1.27104">
        <ele>142</ele>
        <time>2012-03-06T13:40:34Z</time>
      </trkpt>
      <trkpt lat="49.31208" lon="1.27094">
        <ele>142</ele>
        <time>2012-03-06T13:40:44Z</time>
      </trkpt>
      <trkpt lat="49.31202" lon="1.27082">
        <ele>142</ele>
        <time>2012-03-06T13:40:53Z</time>
      </trkpt>
      <trkpt lat="49.31196" lon="1.27071">
        <ele>142</ele>
        <time>2012-03-06T13:41:02Z</time>
      </trkpt>
      <trkpt lat="49.31189" lon="1.2706">
        <ele>142</ele>
        <time>2012-03-06T13:41:12Z</time>
      </trkpt>
      <trkpt lat="49.31183" lon="1.27049">
        <ele>142</ele>
        <time>2012-03-06T13:41:21Z</time>
      </trkpt>
      <trkpt lat="49.31177" lon="1.27038">
        <ele>147</ele>
        <time>2012-03-06T13:41:30Z</time>
      </trkpt>
      <trkpt lat="49.3117" lon="1.27027">
        <ele>147</ele>
        <time>2012-03-06T13:41:39Z</time>
      </trkpt>
      <trkpt lat="49.31165" lon="1.27016">
        <ele>147</ele>
        <time>2012-03-06T13:41:48Z</time>
      </trkpt>
      <trkpt lat="49.31159" lon="1.27004">
        <ele>147</ele>
        <time>2012-03-06T13:41:57Z</time>
      </trkpt>
      <trkpt lat="49.31152" lon="1.26993">
        <ele>147</ele>
        <time>2012-03-06T13:42:06Z</time>
      </trkpt>
      <trkpt lat="49.31147" lon="1.26982">
        <ele>147</ele>
        <time>2012-03-06T13:42:15Z</time>
      </trkpt>
      <trkpt lat="49.3114" lon="1.26972">
        <ele>147</ele>
        <time>2012-03-06T13:42:23Z</time>
      </trkpt>
      <trkpt lat="49.31134" lon="1.26961">
        <ele>147</ele>
        <time>2012-03-06T13:42:32Z</time>
      </trkpt>
      <trkpt lat="49.31128" lon="1.26951">
        <ele>147</ele>
        <time>2012-03-06T13:42:41Z</time>
      </trkpt>
      <trkpt lat="49.31121" lon="1.2694">
        <ele>147</ele>
        <time>2012-03-06T13:42:50Z</time>
      </trkpt>
      <trkpt lat="49.31115" lon="1.26929">
        <ele>147</ele>
        <time>2012-03-06T13:42:59Z</time>
      </trkpt>
      <trkpt lat="49.31108" lon="1.26918">
        <ele>147</ele>
        <time>2012-03-06T13:43:08Z</time>
      </trkpt>
      <trkpt lat="49.31103" lon="1.26906">
        <ele>147</ele>
        <time>2012-03-06T13:43:17Z</time>
      </trkpt>
      <trkpt lat="49.31096" lon="1.26894">
        <ele>147</ele>
        <time>2012-03-06T13:43:26Z</time>
      </trkpt>
      <trkpt lat="49.3109" lon="1.26883">
        <ele>147</ele>
        <time>2012-03-06T13:43:34Z</time>
      </trkpt>
      <trkpt lat="49.31084" lon="1.26872">
        <ele>147</ele>
        <time>2012-03-06T13:43:43Z</time>
      </trkpt>
      <trkpt lat="49.31077" lon="1.26861">
        <ele>147</ele>
        <time>2012-03-06T13:43:52Z</time>
      </trkpt>
      <trkpt lat="49.31071" lon="1.26848">
        <ele>147</ele>
        <time>2012-03-06T13:44:01Z</time>
      </trkpt>
      <trkpt lat="49.31065" lon="1.26837">
        <ele>147</ele>
        <time>2012-03-06T13:44:10Z</time>
      </trkpt>
      <trkpt lat="49.31058" lon="1.26825">
        <ele>147</ele>
        <time>2012-03-06T13:44:19Z</time>
      </trkpt>
      <trkpt lat="49.31051" lon="1.26815">
        <ele>147</ele>
        <time>2012-03-06T13:44:27Z</time>
      </trkpt>
      <trkpt lat="49.31045" lon="1.26803">
        <ele>147</ele>
        <time>2012-03-06T13:44:36Z</time>
      </trkpt>
      <trkpt lat="49.31039" lon="1.26792">
        <ele>147</ele>
        <time>2012-03-06T13:44:44Z</time>
      </trkpt>
      <trkpt lat="49.31033" lon="1.26781">
        <ele>147</ele>
        <time>2012-03-06T13:44:53Z</time>
      </trkpt>
      <trkpt lat="49.31026" lon="1.26771">
        <ele>147</ele>
        <time>2012-03-06T13:45:01Z</time>
      </trkpt>
      <trkpt lat="49.31021" lon="1.26758">
        <ele>147</ele>
        <time>2012-03-06T13:45:10Z</time>
      </trkpt>
      <trkpt lat="49.31013" lon="1.2675">
        <ele>147</ele>
        <time>2012-03-06T13:45:21Z</time>
      </trkpt>
      <trkpt lat="49.31008" lon="1.26737">
        <ele>147</ele>
        <time>2012-03-06T13:45:30Z</time>
      </trkpt>
      <trkpt lat="49.31007" lon="1.26723">
        <ele>147</ele>
        <time>2012-03-06T13:45:53Z</time>
      </trkpt>
      <trkpt lat="49.31013" lon="1.26713">
        <ele>147</ele>
        <time>2012-03-06T13:46:04Z</time>
      </trkpt>
      <trkpt lat="49.31021" lon="1.26707">
        <ele>147</ele>
        <time>2012-03-06T13:46:14Z</time>
      </trkpt>
      <trkpt lat="49.3103" lon="1.26699">
        <ele>147</ele>
        <time>2012-03-06T13:46:24Z</time>
      </trkpt>
      <trkpt lat="49.31039" lon="1.26693">
        <ele>147</ele>
        <time>2012-03-06T13:46:34Z</time>
      </trkpt>
      <trkpt lat="49.31048" lon="1.26689">
        <ele>147</ele>
        <time>2012-03-06T13:46:43Z</time>
      </trkpt>
      <trkpt lat="49.31057" lon="1.26685">
        <ele>147</ele>
        <time>2012-03-06T13:46:52Z</time>
      </trkpt>
      <trkpt lat="49.31067" lon="1.26682">
        <ele>147</ele>
        <time>2012-03-06T13:47:02Z</time>
      </trkpt>
      <trkpt lat="49.31076" lon="1.26675">
        <ele>147</ele>
        <time>2012-03-06T13:47:12Z</time>
      </trkpt>
      <trkpt lat="49.31073" lon="1.26662">
        <ele>147</ele>
        <time>2012-03-06T13:47:21Z</time>
      </trkpt>
      <trkpt lat="49.31068" lon="1.26649">
        <ele>147</ele>
        <time>2012-03-06T13:47:30Z</time>
      </trkpt>
      <trkpt lat="49.31063" lon="1.26637">
        <ele>147</ele>
        <time>2012-03-06T13:47:40Z</time>
      </trkpt>
      <trkpt lat="49.31058" lon="1.26625">
        <ele>147</ele>
        <time>2012-03-06T13:47:49Z</time>
      </trkpt>
      <trkpt lat="49.31053" lon="1.26612">
        <ele>147</ele>
        <time>2012-03-06T13:47:58Z</time>
      </trkpt>
      <trkpt lat="49.31047" lon="1.26601">
        <ele>147</ele>
        <time>2012-03-06T13:48:06Z</time>
      </trkpt>
      <trkpt lat="49.31041" lon="1.26587">
        <ele>147</ele>
        <time>2012-03-06T13:48:15Z</time>
      </trkpt>
      <trkpt lat="49.31036" lon="1.26574">
        <ele>147</ele>
        <time>2012-03-06T13:48:24Z</time>
      </trkpt>
      <trkpt lat="49.31031" lon="1.26562">
        <ele>147</ele>
        <time>2012-03-06T13:48:33Z</time>
      </trkpt>
      <trkpt lat="49.31025" lon="1.2655">
        <ele>147</ele>
        <time>2012-03-06T13:48:42Z</time>
      </trkpt>
      <trkpt lat="49.31019" lon="1.26538">
        <ele>147</ele>
        <time>2012-03-06T13:48:51Z</time>
      </trkpt>
      <trkpt lat="49.31014" lon="1.26524">
        <ele>147</ele>
        <time>2012-03-06T13:49:00Z</time>
      </trkpt>
      <trkpt lat="49.31008" lon="1.26512">
        <ele>147</ele>
        <time>2012-03-06T13:49:09Z</time>
      </trkpt>
      <trkpt lat="49.31003" lon="1.26501">
        <ele>147</ele>
        <time>2012-03-06T13:49:17Z</time>
      </trkpt>
      <trkpt lat="49.30998" lon="1.26488">
        <ele>147</ele>
        <time>2012-03-06T13:49:26Z</time>
      </trkpt>
      <trkpt lat="49.30993" lon="1.26476">
        <ele>147</ele>
        <time>2012-03-06T13:49:35Z</time>
      </trkpt>
      <trkpt lat="49.30987" lon="1.26463">
        <ele>147</ele>
        <time>2012-03-06T13:49:44Z</time>
      </trkpt>
      <trkpt lat="49.30982" lon="1.26451">
        <ele>147</ele>
        <time>2012-03-06T13:49:53Z</time>
      </trkpt>
      <trkpt lat="49.30975" lon="1.26441">
        <ele>147</ele>
        <time>2012-03-06T13:50:28Z</time>
      </trkpt>
      <trkpt lat="49.3098" lon="1.26427">
        <ele>147</ele>
        <time>2012-03-06T13:50:41Z</time>
      </trkpt>
      <trkpt lat="49.30984" lon="1.26414">
        <ele>147</ele>
        <time>2012-03-06T13:50:51Z</time>
      </trkpt>
      <trkpt lat="49.3099" lon="1.26401">
        <ele>147</ele>
        <time>2012-03-06T13:51:00Z</time>
      </trkpt>
      <trkpt lat="49.30996" lon="1.26389">
        <ele>147</ele>
        <time>2012-03-06T13:51:09Z</time>
      </trkpt>
      <trkpt lat="49.31" lon="1.26376">
        <ele>147</ele>
        <time>2012-03-06T13:51:18Z</time>
      </trkpt>
      <trkpt lat="49.31006" lon="1.26363">
        <ele>147</ele>
        <time>2012-03-06T13:51:27Z</time>
      </trkpt>
      <trkpt lat="49.3101" lon="1.26351">
        <ele>142</ele>
        <time>2012-03-06T13:51:36Z</time>
      </trkpt>
      <trkpt lat="49.31016" lon="1.26338">
        <ele>142</ele>
        <time>2012-03-06T13:51:45Z</time>
      </trkpt>
      <trkpt lat="49.31021" lon="1.26326">
        <ele>142</ele>
        <time>2012-03-06T13:51:54Z</time>
      </trkpt>
      <trkpt lat="49.31027" lon="1.26313">
        <ele>142</ele>
        <time>2012-03-06T13:52:03Z</time>
      </trkpt>
      <trkpt lat="49.31033" lon="1.263">
        <ele>142</ele>
        <time>2012-03-06T13:52:12Z</time>
      </trkpt>
      <trkpt lat="49.31038" lon="1.26287">
        <ele>142</ele>
        <time>2012-03-06T13:52:21Z</time>
      </trkpt>
      <trkpt lat="49.31044" lon="1.26275">
        <ele>142</ele>
        <time>2012-03-06T13:52:30Z</time>
      </trkpt>
      <trkpt lat="49.3105" lon="1.26263">
        <ele>142</ele>
        <time>2012-03-06T13:52:39Z</time>
      </trkpt>
      <trkpt lat="49.31055" lon="1.26251">
        <ele>142</ele>
        <time>2012-03-06T13:52:47Z</time>
      </trkpt>
      <trkpt lat="49.3106" lon="1.26239">
        <ele>142</ele>
        <time>2012-03-06T13:52:56Z</time>
      </trkpt>
      <trkpt lat="49.31066" lon="1.26227">
        <ele>142</ele>
        <time>2012-03-06T13:53:04Z</time>
      </trkpt>
      <trkpt lat="49.31071" lon="1.26213">
        <ele>142</ele>
        <time>2012-03-06T13:53:13Z</time>
      </trkpt>
      <trkpt lat="49.31077" lon="1.26201">
        <ele>142</ele>
        <time>2012-03-06T13:53:22Z</time>
      </trkpt>
      <trkpt lat="49.31082" lon="1.26188">
        <ele>142</ele>
        <time>2012-03-06T13:53:31Z</time>
      </trkpt>
      <trkpt lat="49.31087" lon="1.26175">
        <ele>142</ele>
        <time>2012-03-06T13:53:40Z</time>
      </trkpt>
      <trkpt lat="49.31092" lon="1.26161">
        <ele>142</ele>
        <time>2012-03-06T13:53:49Z</time>
      </trkpt>
      <trkpt lat="49.31096" lon="1.26147">
        <ele>142</ele>
        <time>2012-03-06T13:53:58Z</time>
      </trkpt>
      <trkpt lat="49.311" lon="1.26133">
        <ele>142</ele>
        <time>2012-03-06T13:54:07Z</time>
      </trkpt>
      <trkpt lat="49.31104" lon="1.2612">
        <ele>142</ele>
        <time>2012-03-06T13:54:16Z</time>
      </trkpt>
      <trkpt lat="49.31107" lon="1.26106">
        <ele>142</ele>
        <time>2012-03-06T13:54:24Z</time>
      </trkpt>
      <trkpt lat="49.31111" lon="1.26093">
        <ele>142</ele>
        <time>2012-03-06T13:54:33Z</time>
      </trkpt>
      <trkpt lat="49.31114" lon="1.26079">
        <ele>142</ele>
        <time>2012-03-06T13:54:41Z</time>
      </trkpt>
      <trkpt lat="49.31117" lon="1.26066">
        <ele>142</ele>
        <time>2012-03-06T13:54:49Z</time>
      </trkpt>
      <trkpt lat="49.31121" lon="1.26053">
        <ele>142</ele>
        <time>2012-03-06T13:54:58Z</time>
      </trkpt>
      <trkpt lat="49.31124" lon="1.26038">
        <ele>142</ele>
        <time>2012-03-06T13:55:07Z</time>
      </trkpt>
      <trkpt lat="49.31127" lon="1.26025">
        <ele>142</ele>
        <time>2012-03-06T13:55:16Z</time>
      </trkpt>
      <trkpt lat="49.3113" lon="1.26011">
        <ele>142</ele>
        <time>2012-03-06T13:55:25Z</time>
      </trkpt>
      <trkpt lat="49.31135" lon="1.25998">
        <ele>142</ele>
        <time>2012-03-06T13:55:34Z</time>
      </trkpt>
      <trkpt lat="49.31142" lon="1.2599">
        <ele>142</ele>
        <time>2012-03-06T13:55:45Z</time>
      </trkpt>
      <trkpt lat="49.31151" lon="1.25985">
        <ele>142</ele>
        <time>2012-03-06T13:55:55Z</time>
      </trkpt>
      <trkpt lat="49.31161" lon="1.25979">
        <ele>142</ele>
        <time>2012-03-06T13:56:06Z</time>
      </trkpt>
      <trkpt lat="49.31169" lon="1.25971">
        <ele>142</ele>
        <time>2012-03-06T13:56:14Z</time>
      </trkpt>
      <trkpt lat="49.31177" lon="1.25964">
        <ele>142</ele>
        <time>2012-03-06T13:56:23Z</time>
      </trkpt>
      <trkpt lat="49.31186" lon="1.25955">
        <ele>142</ele>
        <time>2012-03-06T13:56:32Z</time>
      </trkpt>
      <trkpt lat="49.31192" lon="1.25945">
        <ele>142</ele>
        <time>2012-03-06T13:56:40Z</time>
      </trkpt>
      <trkpt lat="49.31198" lon="1.25934">
        <ele>142</ele>
        <time>2012-03-06T13:56:52Z</time>
      </trkpt>
      <trkpt lat="49.31204" lon="1.25921">
        <ele>142</ele>
        <time>2012-03-06T13:57:04Z</time>
      </trkpt>
      <trkpt lat="49.31209" lon="1.2591">
        <ele>142</ele>
        <time>2012-03-06T13:57:12Z</time>
      </trkpt>
      <trkpt lat="49.31215" lon="1.25899">
        <ele>142</ele>
        <time>2012-03-06T13:57:20Z</time>
      </trkpt>
      <trkpt lat="49.31221" lon="1.25886">
        <ele>149</ele>
        <time>2012-03-06T13:57:32Z</time>
      </trkpt>
      <trkpt lat="49.31224" lon="1.25873">
        <ele>149</ele>
        <time>2012-03-06T13:57:41Z</time>
      </trkpt>
      <trkpt lat="49.3123" lon="1.25862">
        <ele>149</ele>
        <time>2012-03-06T13:57:49Z</time>
      </trkpt>
      <trkpt lat="49.31236" lon="1.25849">
        <ele>149</ele>
        <time>2012-03-06T13:57:59Z</time>
      </trkpt>
      <trkpt lat="49.31242" lon="1.25836">
        <ele>149</ele>
        <time>2012-03-06T13:58:07Z</time>
      </trkpt>
      <trkpt lat="49.3125" lon="1.25827">
        <ele>149</ele>
        <time>2012-03-06T13:58:14Z</time>
      </trkpt>
      <trkpt lat="49.31259" lon="1.25819">
        <ele>149</ele>
        <time>2012-03-06T13:58:23Z</time>
      </trkpt>
      <trkpt lat="49.31268" lon="1.25814">
        <ele>149</ele>
        <time>2012-03-06T13:58:32Z</time>
      </trkpt>
      <trkpt lat="49.31276" lon="1.2581">
        <ele>149</ele>
        <time>2012-03-06T13:58:42Z</time>
      </trkpt>
      <trkpt lat="49.31286" lon="1.25805">
        <ele>149</ele>
        <time>2012-03-06T13:58:53Z</time>
      </trkpt>
      <trkpt lat="49.31295" lon="1.25798">
        <ele>149</ele>
        <time>2012-03-06T13:59:00Z</time>
      </trkpt>
      <trkpt lat="49.31304" lon="1.25794">
        <ele>149</ele>
        <time>2012-03-06T13:59:08Z</time>
      </trkpt>
      <trkpt lat="49.31313" lon="1.25788">
        <ele>149</ele>
        <time>2012-03-06T13:59:16Z</time>
      </trkpt>
      <trkpt lat="49.31322" lon="1.25783">
        <ele>149</ele>
        <time>2012-03-06T13:59:29Z</time>
      </trkpt>
      <trkpt lat="49.3133" lon="1.25775">
        <ele>149</ele>
        <time>2012-03-06T13:59:39Z</time>
      </trkpt>
      <trkpt lat="49.31339" lon="1.25769">
        <ele>149</ele>
        <time>2012-03-06T13:59:47Z</time>
      </trkpt>
      <trkpt lat="49.31347" lon="1.25761">
        <ele>149</ele>
        <time>2012-03-06T13:59:54Z</time>
      </trkpt>
      <trkpt lat="49.31356" lon="1.25754">
        <ele>149</ele>
        <time>2012-03-06T14:00:03Z</time>
      </trkpt>
      <trkpt lat="49.31364" lon="1.25747">
        <ele>149</ele>
        <time>2012-03-06T14:00:12Z</time>
      </trkpt>
      <trkpt lat="49.31371" lon="1.25737">
        <ele>149</ele>
        <time>2012-03-06T14:00:21Z</time>
      </trkpt>
      <trkpt lat="49.3138" lon="1.25741">
        <ele>140</ele>
        <time>2012-03-06T14:02:05Z</time>
      </trkpt>
      <trkpt lat="49.31384" lon="1.25728">
        <ele>140</ele>
        <time>2012-03-06T14:03:28Z</time>
      </trkpt>
      <trkpt lat="49.31393" lon="1.2572">
        <ele>147</ele>
        <time>2012-03-06T14:03:40Z</time>
      </trkpt>
      <trkpt lat="49.31401" lon="1.2571">
        <ele>147</ele>
        <time>2012-03-06T14:03:49Z</time>
      </trkpt>
      <trkpt lat="49.31409" lon="1.257">
        <ele>152</ele>
        <time>2012-03-06T14:04:01Z</time>
      </trkpt>
      <trkpt lat="49.31415" lon="1.25691">
        <ele>152</ele>
        <time>2012-03-06T14:04:10Z</time>
      </trkpt>
      <trkpt lat="49.31421" lon="1.2568">
        <ele>152</ele>
        <time>2012-03-06T14:04:16Z</time>
      </trkpt>
      <trkpt lat="49.3143" lon="1.25671">
        <ele>152</ele>
        <time>2012-03-06T14:04:23Z</time>
      </trkpt>
      <trkpt lat="49.31438" lon="1.25665">
        <ele>152</ele>
        <time>2012-03-06T14:04:28Z</time>
      </trkpt>
      <trkpt lat="49.31446" lon="1.25655">
        <ele>152</ele>
        <time>2012-03-06T14:04:40Z</time>
      </trkpt>
      <trkpt lat="49.31453" lon="1.25645">
        <ele>152</ele>
        <time>2012-03-06T14:04:48Z</time>
      </trkpt>
      <trkpt lat="49.3146" lon="1.25634">
        <ele>152</ele>
        <time>2012-03-06T14:04:57Z</time>
      </trkpt>
      <trkpt lat="49.31466" lon="1.25623">
        <ele>152</ele>
        <time>2012-03-06T14:05:06Z</time>
      </trkpt>
      <trkpt lat="49.31474" lon="1.25613">
        <ele>147</ele>
        <time>2012-03-06T14:05:13Z</time>
      </trkpt>
      <trkpt lat="49.31481" lon="1.25604">
        <ele>147</ele>
        <time>2012-03-06T14:05:21Z</time>
      </trkpt>
      <trkpt lat="49.31488" lon="1.25595">
        <ele>147</ele>
        <time>2012-03-06T14:05:31Z</time>
      </trkpt>
      <trkpt lat="49.31497" lon="1.25587">
        <ele>147</ele>
        <time>2012-03-06T14:05:41Z</time>
      </trkpt>
      <trkpt lat="49.31503" lon="1.25575">
        <ele>152</ele>
        <time>2012-03-06T14:05:48Z</time>
      </trkpt>
      <trkpt lat="49.3151" lon="1.25565">
        <ele>152</ele>
        <time>2012-03-06T14:05:56Z</time>
      </trkpt>
      <trkpt lat="49.31518" lon="1.25555">
        <ele>152</ele>
        <time>2012-03-06T14:06:05Z</time>
      </trkpt>
      <trkpt lat="49.31527" lon="1.25547">
        <ele>161</ele>
        <time>2012-03-06T14:06:13Z</time>
      </trkpt>
      <trkpt lat="49.31534" lon="1.25538">
        <ele>161</ele>
        <time>2012-03-06T14:06:22Z</time>
      </trkpt>
      <trkpt lat="49.31542" lon="1.25532">
        <ele>161</ele>
        <time>2012-03-06T14:06:30Z</time>
      </trkpt>
      <trkpt lat="49.31551" lon="1.25526">
        <ele>161</ele>
        <time>2012-03-06T14:06:40Z</time>
      </trkpt>
      <trkpt lat="49.3156" lon="1.25521">
        <ele>161</ele>
        <time>2012-03-06T14:06:48Z</time>
      </trkpt>
      <trkpt lat="49.31569" lon="1.25517">
        <ele>161</ele>
        <time>2012-03-06T14:06:57Z</time>
      </trkpt>
      <trkpt lat="49.31578" lon="1.25514">
        <ele>161</ele>
        <time>2012-03-06T14:07:05Z</time>
      </trkpt>
      <trkpt lat="49.31588" lon="1.25515">
        <ele>155</ele>
        <time>2012-03-06T14:07:15Z</time>
      </trkpt>
      <trkpt lat="49.31598" lon="1.25514">
        <ele>155</ele>
        <time>2012-03-06T14:07:25Z</time>
      </trkpt>
      <trkpt lat="49.31606" lon="1.2551">
        <ele>155</ele>
        <time>2012-03-06T14:07:33Z</time>
      </trkpt>
      <trkpt lat="49.31617" lon="1.25507">
        <ele>155</ele>
        <time>2012-03-06T14:07:44Z</time>
      </trkpt>
      <trkpt lat="49.31626" lon="1.25501">
        <ele>155</ele>
        <time>2012-03-06T14:07:52Z</time>
      </trkpt>
      <trkpt lat="49.31636" lon="1.25496">
        <ele>155</ele>
        <time>2012-03-06T14:08:00Z</time>
      </trkpt>
      <trkpt lat="49.31645" lon="1.25491">
        <ele>155</ele>
        <time>2012-03-06T14:08:12Z</time>
      </trkpt>
      <trkpt lat="49.31653" lon="1.25485">
        <ele>155</ele>
        <time>2012-03-06T14:08:19Z</time>
      </trkpt>
      <trkpt lat="49.31662" lon="1.25477">
        <ele>155</ele>
        <time>2012-03-06T14:08:26Z</time>
      </trkpt>
      <trkpt lat="49.3167" lon="1.2547">
        <ele>155</ele>
        <time>2012-03-06T14:08:36Z</time>
      </trkpt>
      <trkpt lat="49.31678" lon="1.25462">
        <ele>155</ele>
        <time>2012-03-06T14:08:44Z</time>
      </trkpt>
      <trkpt lat="49.31686" lon="1.25454">
        <ele>155</ele>
        <time>2012-03-06T14:08:52Z</time>
      </trkpt>
      <trkpt lat="49.31692" lon="1.25443">
        <ele>162</ele>
        <time>2012-03-06T14:09:00Z</time>
      </trkpt>
      <trkpt lat="49.31699" lon="1.25434">
        <ele>162</ele>
        <time>2012-03-06T14:09:11Z</time>
      </trkpt>
      <trkpt lat="49.31707" lon="1.25426">
        <ele>155</ele>
        <time>2012-03-06T14:09:21Z</time>
      </trkpt>
      <trkpt lat="49.31716" lon="1.25417">
        <ele>155</ele>
        <time>2012-03-06T14:09:28Z</time>
      </trkpt>
      <trkpt lat="49.31724" lon="1.25408">
        <ele>155</ele>
        <time>2012-03-06T14:09:36Z</time>
      </trkpt>
      <trkpt lat="49.3173" lon="1.25397">
        <ele>155</ele>
        <time>2012-03-06T14:09:48Z</time>
      </trkpt>
      <trkpt lat="49.31733" lon="1.25383">
        <ele>155</ele>
        <time>2012-03-06T14:09:57Z</time>
      </trkpt>
      <trkpt lat="49.3174" lon="1.25372">
        <ele>155</ele>
        <time>2012-03-06T14:10:05Z</time>
      </trkpt>
      <trkpt lat="49.31749" lon="1.25369">
        <ele>155</ele>
        <time>2012-03-06T14:10:45Z</time>
      </trkpt>
      <trkpt lat="49.31749" lon="1.25355">
        <ele>155</ele>
        <time>2012-03-06T14:11:53Z</time>
      </trkpt>
      <trkpt lat="49.31743" lon="1.25344">
        <ele>161</ele>
        <time>2012-03-06T14:12:06Z</time>
      </trkpt>
      <trkpt lat="49.3174" lon="1.2533">
        <ele>161</ele>
        <time>2012-03-06T14:12:33Z</time>
      </trkpt>
      <trkpt lat="49.31747" lon="1.2532">
        <ele>153</ele>
        <time>2012-03-06T14:12:56Z</time>
      </trkpt>
      <trkpt lat="49.31748" lon="1.25305">
        <ele>153</ele>
        <time>2012-03-06T14:13:09Z</time>
      </trkpt>
      <trkpt lat="49.31749" lon="1.25291">
        <ele>153</ele>
        <time>2012-03-06T14:13:22Z</time>
      </trkpt>
      <trkpt lat="49.31747" lon="1.25276">
        <ele>147</ele>
        <time>2012-03-06T14:13:35Z</time>
      </trkpt>
      <trkpt lat="49.31747" lon="1.25262">
        <ele>147</ele>
        <time>2012-03-06T14:13:45Z</time>
      </trkpt>
      <trkpt lat="49.31748" lon="1.25247">
        <ele>156</ele>
        <time>2012-03-06T14:13:55Z</time>
      </trkpt>
      <trkpt lat="49.31747" lon="1.25231">
        <ele>156</ele>
        <time>2012-03-06T14:14:02Z</time>
      </trkpt>
      <trkpt lat="49.31742" lon="1.25219">
        <ele>147</ele>
        <time>2012-03-06T14:14:12Z</time>
      </trkpt>
      <trkpt lat="49.31741" lon="1.25205">
        <ele>147</ele>
        <time>2012-03-06T14:14:20Z</time>
      </trkpt>
      <trkpt lat="49.3174" lon="1.25189">
        <ele>147</ele>
        <time>2012-03-06T14:14:29Z</time>
      </trkpt>
      <trkpt lat="49.31739" lon="1.25175">
        <ele>147</ele>
        <time>2012-03-06T14:14:36Z</time>
      </trkpt>
      <trkpt lat="49.31736" lon="1.25161">
        <ele>147</ele>
        <time>2012-03-06T14:14:45Z</time>
      </trkpt>
      <trkpt lat="49.31736" lon="1.25146">
        <ele>147</ele>
        <time>2012-03-06T14:14:54Z</time>
      </trkpt>
      <trkpt lat="49.31733" lon="1.25133">
        <ele>147</ele>
        <time>2012-03-06T14:15:03Z</time>
      </trkpt>
      <trkpt lat="49.31736" lon="1.25118">
        <ele>147</ele>
        <time>2012-03-06T14:15:11Z</time>
      </trkpt>
      <trkpt lat="49.31739" lon="1.25105">
        <ele>147</ele>
        <time>2012-03-06T14:15:18Z</time>
      </trkpt>
      <trkpt lat="49.31743" lon="1.2509">
        <ele>147</ele>
        <time>2012-03-06T14:15:25Z</time>
      </trkpt>
      <trkpt lat="49.31745" lon="1.25073">
        <ele>147</ele>
        <time>2012-03-06T14:15:34Z</time>
      </trkpt>
      <trkpt lat="49.31749" lon="1.2506">
        <ele>147</ele>
        <time>2012-03-06T14:15:40Z</time>
      </trkpt>
      <trkpt lat="49.3175" lon="1.25046">
        <ele>147</ele>
        <time>2012-03-06T14:15:48Z</time>
      </trkpt>
      <trkpt lat="49.31753" lon="1.25031">
        <ele>155</ele>
        <time>2012-03-06T14:15:58Z</time>
      </trkpt>
      <trkpt lat="49.31754" lon="1.25017">
        <ele>155</ele>
        <time>2012-03-06T14:16:07Z</time>
      </trkpt>
      <trkpt lat="49.31754" lon="1.25002">
        <ele>155</ele>
        <time>2012-03-06T14:16:17Z</time>
      </trkpt>
      <trkpt lat="49.31757" lon="1.24987">
        <ele>155</ele>
        <time>2012-03-06T14:16:26Z</time>
      </trkpt>
      <trkpt lat="49.31756" lon="1.24972">
        <ele>150</ele>
        <time>2012-03-06T14:16:35Z</time>
      </trkpt>
      <trkpt lat="49.31754" lon="1.24957">
        <ele>144</ele>
        <time>2012-03-06T14:16:45Z</time>
      </trkpt>
      <trkpt lat="49.31754" lon="1.24942">
        <ele>144</ele>
        <time>2012-03-06T14:16:52Z</time>
      </trkpt>
      <trkpt lat="49.31755" lon="1.24927">
        <ele>144</ele>
        <time>2012-03-06T14:17:00Z</time>
      </trkpt>
      <trkpt lat="49.31753" lon="1.24913">
        <ele>144</ele>
        <time>2012-03-06T14:17:10Z</time>
      </trkpt>
      <trkpt lat="49.31749" lon="1.249">
        <ele>151</ele>
        <time>2012-03-06T14:17:20Z</time>
      </trkpt>
      <trkpt lat="49.31746" lon="1.24887">
        <ele>151</ele>
        <time>2012-03-06T14:17:29Z</time>
      </trkpt>
      <trkpt lat="49.31744" lon="1.24871">
        <ele>151</ele>
        <time>2012-03-06T14:17:38Z</time>
      </trkpt>
      <trkpt lat="49.31738" lon="1.24858">
        <ele>151</ele>
        <time>2012-03-06T14:17:47Z</time>
      </trkpt>
      <trkpt lat="49.31737" lon="1.24843">
        <ele>157</ele>
        <time>2012-03-06T14:17:55Z</time>
      </trkpt>
      <trkpt lat="49.31731" lon="1.2483">
        <ele>157</ele>
        <time>2012-03-06T14:18:03Z</time>
      </trkpt>
      <trkpt lat="49.31726" lon="1.24816">
        <ele>157</ele>
        <time>2012-03-06T14:18:11Z</time>
      </trkpt>
      <trkpt lat="49.31721" lon="1.24804">
        <ele>157</ele>
        <time>2012-03-06T14:18:19Z</time>
      </trkpt>
      <trkpt lat="49.31717" lon="1.2479">
        <ele>157</ele>
        <time>2012-03-06T14:18:29Z</time>
      </trkpt>
      <trkpt lat="49.31712" lon="1.24778">
        <ele>148</ele>
        <time>2012-03-06T14:18:35Z</time>
      </trkpt>
      <trkpt lat="49.3171" lon="1.24763">
        <ele>141</ele>
        <time>2012-03-06T14:18:43Z</time>
      </trkpt>
      <trkpt lat="49.31703" lon="1.24752">
        <ele>141</ele>
        <time>2012-03-06T14:18:52Z</time>
      </trkpt>
      <trkpt lat="49.31698" lon="1.24739">
        <ele>141</ele>
        <time>2012-03-06T14:19:02Z</time>
      </trkpt>
      <trkpt lat="49.31696" lon="1.24726">
        <ele>141</ele>
        <time>2012-03-06T14:19:10Z</time>
      </trkpt>
      <trkpt lat="49.31693" lon="1.2471">
        <ele>141</ele>
        <time>2012-03-06T14:19:18Z</time>
      </trkpt>
      <trkpt lat="49.31688" lon="1.24699">
        <ele>141</ele>
        <time>2012-03-06T14:19:27Z</time>
      </trkpt>
      <trkpt lat="49.31683" lon="1.24685">
        <ele>141</ele>
        <time>2012-03-06T14:19:35Z</time>
      </trkpt>
      <trkpt lat="49.31679" lon="1.24671">
        <ele>141</ele>
        <time>2012-03-06T14:19:45Z</time>
      </trkpt>
      <trkpt lat="49.31679" lon="1.24656">
        <ele>141</ele>
        <time>2012-03-06T14:19:52Z</time>
      </trkpt>
      <trkpt lat="49.31674" lon="1.24642">
        <ele>141</ele>
        <time>2012-03-06T14:20:01Z</time>
      </trkpt>
      <trkpt lat="49.31669" lon="1.24629">
        <ele>141</ele>
        <time>2012-03-06T14:20:10Z</time>
      </trkpt>
      <trkpt lat="49.31664" lon="1.24616">
        <ele>141</ele>
        <time>2012-03-06T14:20:16Z</time>
      </trkpt>
      <trkpt lat="49.31659" lon="1.24603">
        <ele>129</ele>
        <time>2012-03-06T14:20:28Z</time>
      </trkpt>
      <trkpt lat="49.31659" lon="1.24588">
        <ele>129</ele>
        <time>2012-03-06T14:20:35Z</time>
      </trkpt>
      <trkpt lat="49.3166" lon="1.24574">
        <ele>129</ele>
        <time>2012-03-06T14:20:42Z</time>
      </trkpt>
      <trkpt lat="49.31655" lon="1.24561">
        <ele>129</ele>
        <time>2012-03-06T14:20:52Z</time>
      </trkpt>
      <trkpt lat="49.31652" lon="1.24548">
        <ele>129</ele>
        <time>2012-03-06T14:20:59Z</time>
      </trkpt>
      <trkpt lat="49.31646" lon="1.24536">
        <ele>129</ele>
        <time>2012-03-06T14:21:07Z</time>
      </trkpt>
      <trkpt lat="49.31646" lon="1.24522">
        <ele>129</ele>
        <time>2012-03-06T14:21:14Z</time>
      </trkpt>
      <trkpt lat="49.31644" lon="1.24507">
        <ele>129</ele>
        <time>2012-03-06T14:21:23Z</time>
      </trkpt>
      <trkpt lat="49.31642" lon="1.24492">
        <ele>129</ele>
        <time>2012-03-06T14:21:33Z</time>
      </trkpt>
      <trkpt lat="49.31636" lon="1.24482">
        <ele>129</ele>
        <time>2012-03-06T14:21:41Z</time>
      </trkpt>
      <trkpt lat="49.31632" lon="1.24469">
        <ele>122</ele>
        <time>2012-03-06T14:21:49Z</time>
      </trkpt>
      <trkpt lat="49.3163" lon="1.24455">
        <ele>122</ele>
        <time>2012-03-06T14:21:58Z</time>
      </trkpt>
      <trkpt lat="49.31626" lon="1.24441">
        <ele>122</ele>
        <time>2012-03-06T14:22:09Z</time>
      </trkpt>
      <trkpt lat="49.31624" lon="1.24427">
        <ele>122</ele>
        <time>2012-03-06T14:22:23Z</time>
      </trkpt>
      <trkpt lat="49.3163" lon="1.24416">
        <ele>112</ele>
        <time>2012-03-06T14:24:11Z</time>
      </trkpt>
      <trkpt lat="49.31621" lon="1.24415">
        <ele>123</ele>
        <time>2012-03-06T14:24:54Z</time>
      </trkpt>
      <trkpt lat="49.31614" lon="1.24406">
        <ele>123</ele>
        <time>2012-03-06T14:25:06Z</time>
      </trkpt>
      <trkpt lat="49.31605" lon="1.24401">
        <ele>123</ele>
        <time>2012-03-06T14:25:19Z</time>
      </trkpt>
      <trkpt lat="49.31595" lon="1.24402">
        <ele>117</ele>
        <time>2012-03-06T14:25:29Z</time>
      </trkpt>
      <trkpt lat="49.31585" lon="1.24404">
        <ele>117</ele>
        <time>2012-03-06T14:25:39Z</time>
      </trkpt>
      <trkpt lat="49.31575" lon="1.24408">
        <ele>109</ele>
        <time>2012-03-06T14:25:50Z</time>
      </trkpt>
      <trkpt lat="49.31566" lon="1.24408">
        <ele>109</ele>
        <time>2012-03-06T14:26:00Z</time>
      </trkpt>
      <trkpt lat="49.31557" lon="1.2441">
        <ele>109</ele>
        <time>2012-03-06T14:26:09Z</time>
      </trkpt>
      <trkpt lat="49.31547" lon="1.24413">
        <ele>109</ele>
        <time>2012-03-06T14:26:20Z</time>
      </trkpt>
      <trkpt lat="49.31538" lon="1.24417">
        <ele>102</ele>
        <time>2012-03-06T14:26:30Z</time>
      </trkpt>
      <trkpt lat="49.31529" lon="1.24421">
        <ele>92</ele>
        <time>2012-03-06T14:26:39Z</time>
      </trkpt>
      <trkpt lat="49.31527" lon="1.24436">
        <ele>84</ele>
        <time>2012-03-06T14:26:53Z</time>
      </trkpt>
      <trkpt lat="49.31527" lon="1.2445">
        <ele>84</ele>
        <time>2012-03-06T14:27:06Z</time>
      </trkpt>
      <trkpt lat="49.31532" lon="1.24463">
        <ele>84</ele>
        <time>2012-03-06T14:27:38Z</time>
      </trkpt>
      <trkpt lat="49.31534" lon="1.24476">
        <ele>84</ele>
        <time>2012-03-06T14:27:55Z</time>
      </trkpt>
      <trkpt lat="49.31537" lon="1.24489">
        <ele>84</ele>
        <time>2012-03-06T14:28:10Z</time>
      </trkpt>
      <trkpt lat="49.3154" lon="1.24503">
        <ele>84</ele>
        <time>2012-03-06T14:28:24Z</time>
      </trkpt>
      <trkpt lat="49.31541" lon="1.24517">
        <ele>84</ele>
        <time>2012-03-06T14:28:40Z</time>
      </trkpt>
      <trkpt lat="49.31545" lon="1.24531">
        <ele>75</ele>
        <time>2012-03-06T14:28:53Z</time>
      </trkpt>
      <trkpt lat="49.31546" lon="1.24545">
        <ele>75</ele>
        <time>2012-03-06T14:29:04Z</time>
      </trkpt>
      <trkpt lat="49.31544" lon="1.2456">
        <ele>75</ele>
        <time>2012-03-06T14:29:16Z</time>
      </trkpt>
      <trkpt lat="49.31536" lon="1.2457">
        <ele>75</ele>
        <time>2012-03-06T14:29:30Z</time>
      </trkpt>
      <trkpt lat="49.31529" lon="1.24579">
        <ele>82</ele>
        <time>2012-03-06T14:29:41Z</time>
      </trkpt>
      <trkpt lat="49.3152" lon="1.24576">
        <ele>73</ele>
        <time>2012-03-06T14:30:02Z</time>
      </trkpt>
      <trkpt lat="49.31518" lon="1.24561">
        <ele>73</ele>
        <time>2012-03-06T14:30:17Z</time>
      </trkpt>
      <trkpt lat="49.3151" lon="1.24557">
        <ele>66</ele>
        <time>2012-03-06T14:30:26Z</time>
      </trkpt>
      <trkpt lat="49.315" lon="1.24555">
        <ele>66</ele>
        <time>2012-03-06T14:30:39Z</time>
      </trkpt>
      <trkpt lat="49.3149" lon="1.24553">
        <ele>66</ele>
        <time>2012-03-06T14:30:49Z</time>
      </trkpt>
      <trkpt lat="49.31481" lon="1.24547">
        <ele>66</ele>
        <time>2012-03-06T14:31:02Z</time>
      </trkpt>
      <trkpt lat="49.31474" lon="1.24537">
        <ele>66</ele>
        <time>2012-03-06T14:31:14Z</time>
      </trkpt>
      <trkpt lat="49.31467" lon="1.24528">
        <ele>66</ele>
        <time>2012-03-06T14:31:23Z</time>
      </trkpt>
      <trkpt lat="49.31458" lon="1.24521">
        <ele>66</ele>
        <time>2012-03-06T14:31:35Z</time>
      </trkpt>
      <trkpt lat="49.31451" lon="1.24512">
        <ele>71</ele>
        <time>2012-03-06T14:31:46Z</time>
      </trkpt>
      <trkpt lat="49.31443" lon="1.24503">
        <ele>71</ele>
        <time>2012-03-06T14:31:56Z</time>
      </trkpt>
      <trkpt lat="49.31436" lon="1.24494">
        <ele>71</ele>
        <time>2012-03-06T14:32:06Z</time>
      </trkpt>
      <trkpt lat="49.31429" lon="1.24484">
        <ele>71</ele>
        <time>2012-03-06T14:32:15Z</time>
      </trkpt>
      <trkpt lat="49.31419" lon="1.2448">
        <ele>60</ele>
        <time>2012-03-06T14:32:22Z</time>
      </trkpt>
      <trkpt lat="49.31414" lon="1.24467">
        <ele>45</ele>
        <time>2012-03-06T14:32:31Z</time>
      </trkpt>
      <trkpt lat="49.31412" lon="1.24452">
        <ele>34</ele>
        <time>2012-03-06T14:32:38Z</time>
      </trkpt>
      <trkpt lat="49.31411" lon="1.24437">
        <ele>34</ele>
        <time>2012-03-06T14:32:48Z</time>
      </trkpt>
      <trkpt lat="49.3141" lon="1.24422">
        <ele>34</ele>
        <time>2012-03-06T14:32:57Z</time>
      </trkpt>
      <trkpt lat="49.31405" lon="1.24409">
        <ele>28</ele>
        <time>2012-03-06T14:33:05Z</time>
      </trkpt>
      <trkpt lat="49.31408" lon="1.24394">
        <ele>28</ele>
        <time>2012-03-06T14:33:12Z</time>
      </trkpt>
      <trkpt lat="49.3141" lon="1.24381">
        <ele>28</ele>
        <time>2012-03-06T14:33:19Z</time>
      </trkpt>
      <trkpt lat="49.31414" lon="1.24367">
        <ele>28</ele>
        <time>2012-03-06T14:33:27Z</time>
      </trkpt>
      <trkpt lat="49.31419" lon="1.24355">
        <ele>28</ele>
        <time>2012-03-06T14:33:35Z</time>
      </trkpt>
      <trkpt lat="49.31424" lon="1.24342">
        <ele>22</ele>
        <time>2012-03-06T14:33:46Z</time>
      </trkpt>
      <trkpt lat="49.31432" lon="1.24333">
        <ele>22</ele>
        <time>2012-03-06T14:33:56Z</time>
      </trkpt>
      <trkpt lat="49.31434" lon="1.24319">
        <ele>22</ele>
        <time>2012-03-06T14:34:10Z</time>
      </trkpt>
      <trkpt lat="49.31426" lon="1.2431">
        <ele>22</ele>
        <time>2012-03-06T14:37:34Z</time>
      </trkpt>
      <trkpt lat="49.31423" lon="1.24296">
        <ele>22</ele>
        <time>2012-03-06T14:37:47Z</time>
      </trkpt>
      <trkpt lat="49.31418" lon="1.24284">
        <ele>14</ele>
        <time>2012-03-06T14:37:55Z</time>
      </trkpt>
      <trkpt lat="49.31413" lon="1.24272">
        <ele>19</ele>
        <time>2012-03-06T14:38:05Z</time>
      </trkpt>
      <trkpt lat="49.31406" lon="1.24262">
        <ele>25</ele>
        <time>2012-03-06T14:38:17Z</time>
      </trkpt>
      <trkpt lat="49.31397" lon="1.24253">
        <ele>25</ele>
        <time>2012-03-06T14:38:24Z</time>
      </trkpt>
      <trkpt lat="49.31391" lon="1.24242">
        <ele>25</ele>
        <time>2012-03-06T14:38:32Z</time>
      </trkpt>
      <trkpt lat="49.31384" lon="1.24231">
        <ele>25</ele>
        <time>2012-03-06T14:38:43Z</time>
      </trkpt>
      <trkpt lat="49.31379" lon="1.2422">
        <ele>25</ele>
        <time>2012-03-06T14:38:50Z</time>
      </trkpt>
      <trkpt lat="49.3137" lon="1.24211">
        <ele>30</ele>
        <time>2012-03-06T14:38:57Z</time>
      </trkpt>
      <trkpt lat="49.31364" lon="1.242">
        <ele>30</ele>
        <time>2012-03-06T14:39:05Z</time>
      </trkpt>
      <trkpt lat="49.31359" lon="1.24189">
        <ele>30</ele>
        <time>2012-03-06T14:39:11Z</time>
      </trkpt>
      <trkpt lat="49.31352" lon="1.2418">
        <ele>30</ele>
        <time>2012-03-06T14:39:19Z</time>
      </trkpt>
      <trkpt lat="49.31345" lon="1.2417">
        <ele>30</ele>
        <time>2012-03-06T14:39:27Z</time>
      </trkpt>
      <trkpt lat="49.31338" lon="1.2416">
        <ele>30</ele>
        <time>2012-03-06T14:39:35Z</time>
      </trkpt>
      <trkpt lat="49.31333" lon="1.24146">
        <ele>30</ele>
        <time>2012-03-06T14:39:42Z</time>
      </trkpt>
      <trkpt lat="49.31326" lon="1.24135">
        <ele>30</ele>
        <time>2012-03-06T14:39:48Z</time>
      </trkpt>
      <trkpt lat="49.3132" lon="1.24121">
        <ele>30</ele>
        <time>2012-03-06T14:39:57Z</time>
      </trkpt>
      <trkpt lat="49.31312" lon="1.2411">
        <ele>30</ele>
        <time>2012-03-06T14:40:05Z</time>
      </trkpt>
      <trkpt lat="49.31307" lon="1.24098">
        <ele>30</ele>
        <time>2012-03-06T14:40:13Z</time>
      </trkpt>
      <trkpt lat="49.31299" lon="1.24087">
        <ele>25</ele>
        <time>2012-03-06T14:40:21Z</time>
      </trkpt>
      <trkpt lat="49.31291" lon="1.24075">
        <ele>25</ele>
        <time>2012-03-06T14:40:31Z</time>
      </trkpt>
      <trkpt lat="49.31283" lon="1.24066">
        <ele>25</ele>
        <time>2012-03-06T14:40:38Z</time>
      </trkpt>
      <trkpt lat="49.31275" lon="1.24056">
        <ele>25</ele>
        <time>2012-03-06T14:40:44Z</time>
      </trkpt>
      <trkpt lat="49.31268" lon="1.24047">
        <ele>25</ele>
        <time>2012-03-06T14:40:49Z</time>
      </trkpt>
      <trkpt lat="49.31258" lon="1.2404">
        <ele>19</ele>
        <time>2012-03-06T14:40:55Z</time>
      </trkpt>
      <trkpt lat="49.31253" lon="1.24029">
        <ele>19</ele>
        <time>2012-03-06T14:41:01Z</time>
      </trkpt>
      <trkpt lat="49.31249" lon="1.24015">
        <ele>14</ele>
        <time>2012-03-06T14:41:08Z</time>
      </trkpt>
      <trkpt lat="49.31249" lon="1.24">
        <ele>14</ele>
        <time>2012-03-06T14:41:15Z</time>
      </trkpt>
      <trkpt lat="49.31249" lon="1.23985">
        <ele>14</ele>
        <time>2012-03-06T14:41:23Z</time>
      </trkpt>
      <trkpt lat="49.3125" lon="1.2397">
        <ele>9</ele>
        <time>2012-03-06T14:41:39Z</time>
      </trkpt>
      <trkpt lat="49.31252" lon="1.23955">
        <ele>9</ele>
        <time>2012-03-06T14:41:47Z</time>
      </trkpt>
      <trkpt lat="49.31255" lon="1.23941">
        <ele>9</ele>
        <time>2012-03-06T14:41:55Z</time>
      </trkpt>
      <trkpt lat="49.31258" lon="1.23926">
        <ele>9</ele>
        <time>2012-03-06T14:42:03Z</time>
      </trkpt>
      <trkpt lat="49.31262" lon="1.23912">
        <ele>9</ele>
        <time>2012-03-06T14:42:11Z</time>
      </trkpt>
      <trkpt lat="49.31266" lon="1.23897">
        <ele>9</ele>
        <time>2012-03-06T14:42:19Z</time>
      </trkpt>
      <trkpt lat="49.31268" lon="1.23882">
        <ele>9</ele>
        <time>2012-03-06T14:42:27Z</time>
      </trkpt>
      <trkpt lat="49.31269" lon="1.23867">
        <ele>9</ele>
        <time>2012-03-06T14:42:35Z</time>
      </trkpt>
      <trkpt lat="49.31269" lon="1.23852">
        <ele>9</ele>
        <time>2012-03-06T14:42:43Z</time>
      </trkpt>
      <trkpt lat="49.31268" lon="1.23836">
        <ele>9</ele>
        <time>2012-03-06T14:42:51Z</time>
      </trkpt>
      <trkpt lat="49.31267" lon="1.23821">
        <ele>9</ele>
        <time>2012-03-06T14:42:59Z</time>
      </trkpt>
      <trkpt lat="49.31266" lon="1.23806">
        <ele>9</ele>
        <time>2012-03-06T14:43:07Z</time>
      </trkpt>
      <trkpt lat="49.31266" lon="1.23791">
        <ele>9</ele>
        <time>2012-03-06T14:43:15Z</time>
      </trkpt>
      <trkpt lat="49.31266" lon="1.23777">
        <ele>9</ele>
        <time>2012-03-06T14:43:22Z</time>
      </trkpt>
      <trkpt lat="49.31265" lon="1.23762">
        <ele>9</ele>
        <time>2012-03-06T14:43:53Z</time>
      </trkpt>
      <trkpt lat="49.31265" lon="1.23747">
        <ele>9</ele>
        <time>2012-03-06T14:44:02Z</time>
      </trkpt>
      <trkpt lat="49.31266" lon="1.23732">
        <ele>9</ele>
        <time>2012-03-06T14:44:10Z</time>
      </trkpt>
      <trkpt lat="49.31267" lon="1.23717">
        <ele>9</ele>
        <time>2012-03-06T14:44:18Z</time>
      </trkpt>
      <trkpt lat="49.31268" lon="1.23703">
        <ele>9</ele>
        <time>2012-03-06T14:44:26Z</time>
      </trkpt>
      <trkpt lat="49.31269" lon="1.23688">
        <ele>9</ele>
        <time>2012-03-06T14:44:33Z</time>
      </trkpt>
      <trkpt lat="49.31269" lon="1.23673">
        <ele>9</ele>
        <time>2012-03-06T14:44:41Z</time>
      </trkpt>
      <trkpt lat="49.31271" lon="1.23659">
        <ele>9</ele>
        <time>2012-03-06T14:44:48Z</time>
      </trkpt>
      <trkpt lat="49.31272" lon="1.23643">
        <ele>9</ele>
        <time>2012-03-06T14:44:56Z</time>
      </trkpt>
      <trkpt lat="49.31273" lon="1.23629">
        <ele>9</ele>
        <time>2012-03-06T14:45:03Z</time>
      </trkpt>
      <trkpt lat="49.31275" lon="1.23614">
        <ele>9</ele>
        <time>2012-03-06T14:45:11Z</time>
      </trkpt>
      <trkpt lat="49.31278" lon="1.23599">
        <ele>9</ele>
        <time>2012-03-06T14:45:19Z</time>
      </trkpt>
      <trkpt lat="49.31281" lon="1.23585">
        <ele>9</ele>
        <time>2012-03-06T14:45:27Z</time>
      </trkpt>
      <trkpt lat="49.31284" lon="1.23571">
        <ele>9</ele>
        <time>2012-03-06T14:45:34Z</time>
      </trkpt>
      <trkpt lat="49.31286" lon="1.23556">
        <ele>9</ele>
        <time>2012-03-06T14:45:42Z</time>
      </trkpt>
      <trkpt lat="49.31287" lon="1.23541">
        <ele>14</ele>
        <time>2012-03-06T14:45:52Z</time>
      </trkpt>
      <trkpt lat="49.31288" lon="1.23526">
        <ele>14</ele>
        <time>2012-03-06T14:45:59Z</time>
      </trkpt>
      <trkpt lat="49.31288" lon="1.23511">
        <ele>14</ele>
        <time>2012-03-06T14:46:06Z</time>
      </trkpt>
      <trkpt lat="49.31287" lon="1.23496">
        <ele>14</ele>
        <time>2012-03-06T14:46:14Z</time>
      </trkpt>
      <trkpt lat="49.31287" lon="1.23481">
        <ele>14</ele>
        <time>2012-03-06T14:46:21Z</time>
      </trkpt>
      <trkpt lat="49.31286" lon="1.23465">
        <ele>14</ele>
        <time>2012-03-06T14:46:29Z</time>
      </trkpt>
      <trkpt lat="49.31286" lon="1.23449">
        <ele>14</ele>
        <time>2012-03-06T14:46:37Z</time>
      </trkpt>
      <trkpt lat="49.31286" lon="1.23435">
        <ele>9</ele>
        <time>2012-03-06T14:47:47Z</time>
      </trkpt>
      <trkpt lat="49.31286" lon="1.2342">
        <ele>9</ele>
        <time>2012-03-06T14:47:54Z</time>
      </trkpt>
      <trkpt lat="49.31285" lon="1.23405">
        <ele>9</ele>
        <time>2012-03-06T14:48:02Z</time>
      </trkpt>
      <trkpt lat="49.31283" lon="1.2339">
        <ele>9</ele>
        <time>2012-03-06T14:48:10Z</time>
      </trkpt>
      <trkpt lat="49.31282" lon="1.23375">
        <ele>9</ele>
        <time>2012-03-06T14:48:18Z</time>
      </trkpt>
      <trkpt lat="49.31281" lon="1.23359">
        <ele>9</ele>
        <time>2012-03-06T14:48:26Z</time>
      </trkpt>
      <trkpt lat="49.31279" lon="1.23344">
        <ele>9</ele>
        <time>2012-03-06T14:48:34Z</time>
      </trkpt>
      <trkpt lat="49.31277" lon="1.23329">
        <ele>9</ele>
        <time>2012-03-06T14:48:42Z</time>
      </trkpt>
      <trkpt lat="49.31275" lon="1.23313">
        <ele>9</ele>
        <time>2012-03-06T14:48:50Z</time>
      </trkpt>
      <trkpt lat="49.31273" lon="1.23297">
        <ele>9</ele>
        <time>2012-03-06T14:48:58Z</time>
      </trkpt>
      <trkpt lat="49.31272" lon="1.23282">
        <ele>9</ele>
        <time>2012-03-06T14:49:06Z</time>
      </trkpt>
      <trkpt lat="49.31271" lon="1.23267">
        <ele>9</ele>
        <time>2012-03-06T14:49:14Z</time>
      </trkpt>
      <trkpt lat="49.31272" lon="1.23252">
        <ele>9</ele>
        <time>2012-03-06T14:49:22Z</time>
      </trkpt>
      <trkpt lat="49.31274" lon="1.23237">
        <ele>9</ele>
        <time>2012-03-06T14:49:30Z</time>
      </trkpt>
      <trkpt lat="49.31276" lon="1.23222">
        <ele>9</ele>
        <time>2012-03-06T14:49:38Z</time>
      </trkpt>
      <trkpt lat="49.31281" lon="1.23208">
        <ele>9</ele>
        <time>2012-03-06T14:49:46Z</time>
      </trkpt>
      <trkpt lat="49.31286" lon="1.23194">
        <ele>9</ele>
        <time>2012-03-06T14:49:54Z</time>
      </trkpt>
      <trkpt lat="49.31292" lon="1.23182">
        <ele>9</ele>
        <time>2012-03-06T14:50:01Z</time>
      </trkpt>
      <trkpt lat="49.313" lon="1.23175">
        <ele>9</ele>
        <time>2012-03-06T14:50:08Z</time>
      </trkpt>
      <trkpt lat="49.31309" lon="1.23167">
        <ele>9</ele>
        <time>2012-03-06T14:50:16Z</time>
      </trkpt>
      <trkpt lat="49.31316" lon="1.23159">
        <ele>9</ele>
        <time>2012-03-06T14:50:23Z</time>
      </trkpt>
      <trkpt lat="49.31324" lon="1.2315">
        <ele>9</ele>
        <time>2012-03-06T14:50:30Z</time>
      </trkpt>
      <trkpt lat="49.31332" lon="1.23141">
        <ele>9</ele>
        <time>2012-03-06T14:50:38Z</time>
      </trkpt>
      <trkpt lat="49.3134" lon="1.23131">
        <ele>9</ele>
        <time>2012-03-06T14:50:46Z</time>
      </trkpt>
      <trkpt lat="49.31348" lon="1.23121">
        <ele>9</ele>
        <time>2012-03-06T14:50:54Z</time>
      </trkpt>
      <trkpt lat="49.31356" lon="1.23111">
        <ele>9</ele>
        <time>2012-03-06T14:51:02Z</time>
      </trkpt>
      <trkpt lat="49.31363" lon="1.23102">
        <ele>9</ele>
        <time>2012-03-06T14:51:09Z</time>
      </trkpt>
      <trkpt lat="49.3137" lon="1.2309">
        <ele>9</ele>
        <time>2012-03-06T14:51:17Z</time>
      </trkpt>
      <trkpt lat="49.31377" lon="1.23078">
        <ele>9</ele>
        <time>2012-03-06T14:51:25Z</time>
      </trkpt>
      <trkpt lat="49.31383" lon="1.23067">
        <ele>9</ele>
        <time>2012-03-06T14:51:32Z</time>
      </trkpt>
      <trkpt lat="49.3139" lon="1.23058">
        <ele>9</ele>
        <time>2012-03-06T14:51:39Z</time>
      </trkpt>
      <trkpt lat="49.31398" lon="1.23049">
        <ele>9</ele>
        <time>2012-03-06T14:51:47Z</time>
      </trkpt>
      <trkpt lat="49.31408" lon="1.23045">
        <ele>9</ele>
        <time>2012-03-06T14:51:55Z</time>
      </trkpt>
      <trkpt lat="49.31418" lon="1.23043">
        <ele>9</ele>
        <time>2012-03-06T14:52:05Z</time>
      </trkpt>
      <trkpt lat="49.31428" lon="1.2304">
        <ele>14</ele>
        <time>2012-03-06T14:52:16Z</time>
      </trkpt>
      <trkpt lat="49.31437" lon="1.23037">
        <ele>14</ele>
        <time>2012-03-06T14:52:26Z</time>
      </trkpt>
      <trkpt lat="49.31447" lon="1.23038">
        <ele>19</ele>
        <time>2012-03-06T14:52:34Z</time>
      </trkpt>
      <trkpt lat="49.31457" lon="1.23038">
        <ele>19</ele>
        <time>2012-03-06T14:52:43Z</time>
      </trkpt>
      <trkpt lat="49.31466" lon="1.23037">
        <ele>19</ele>
        <time>2012-03-06T14:52:50Z</time>
      </trkpt>
      <trkpt lat="49.31475" lon="1.23036">
        <ele>19</ele>
        <time>2012-03-06T14:52:58Z</time>
      </trkpt>
      <trkpt lat="49.31485" lon="1.23034">
        <ele>25</ele>
        <time>2012-03-06T14:53:06Z</time>
      </trkpt>
      <trkpt lat="49.31494" lon="1.23034">
        <ele>25</ele>
        <time>2012-03-06T14:53:13Z</time>
      </trkpt>
      <trkpt lat="49.31505" lon="1.23034">
        <ele>25</ele>
        <time>2012-03-06T14:53:20Z</time>
      </trkpt>
      <trkpt lat="49.31515" lon="1.23035">
        <ele>25</ele>
        <time>2012-03-06T14:53:28Z</time>
      </trkpt>
      <trkpt lat="49.31525" lon="1.23033">
        <ele>25</ele>
        <time>2012-03-06T14:53:36Z</time>
      </trkpt>
      <trkpt lat="49.31535" lon="1.23032">
        <ele>25</ele>
        <time>2012-03-06T14:53:43Z</time>
      </trkpt>
      <trkpt lat="49.31545" lon="1.23032">
        <ele>25</ele>
        <time>2012-03-06T14:53:51Z</time>
      </trkpt>
      <trkpt lat="49.31554" lon="1.23032">
        <ele>25</ele>
        <time>2012-03-06T14:53:58Z</time>
      </trkpt>
      <trkpt lat="49.31564" lon="1.23032">
        <ele>25</ele>
        <time>2012-03-06T14:54:05Z</time>
      </trkpt>
      <trkpt lat="49.31574" lon="1.23032">
        <ele>18</ele>
        <time>2012-03-06T14:54:11Z</time>
      </trkpt>
      <trkpt lat="49.31584" lon="1.23034">
        <ele>18</ele>
        <time>2012-03-06T14:54:18Z</time>
      </trkpt>
      <trkpt lat="49.31594" lon="1.23033">
        <ele>18</ele>
        <time>2012-03-06T14:54:27Z</time>
      </trkpt>
      <trkpt lat="49.31603" lon="1.23036">
        <ele>18</ele>
        <time>2012-03-06T14:54:33Z</time>
      </trkpt>
      <trkpt lat="49.31612" lon="1.2304">
        <ele>10</ele>
        <time>2012-03-06T14:54:51Z</time>
      </trkpt>
      <trkpt lat="49.31622" lon="1.23038">
        <ele>17</ele>
        <time>2012-03-06T14:55:03Z</time>
      </trkpt>
      <trkpt lat="49.31632" lon="1.23039">
        <ele>17</ele>
        <time>2012-03-06T14:55:13Z</time>
      </trkpt>
      <trkpt lat="49.31642" lon="1.23038">
        <ele>17</ele>
        <time>2012-03-06T14:55:22Z</time>
      </trkpt>
      <trkpt lat="49.31652" lon="1.23037">
        <ele>24</ele>
        <time>2012-03-06T14:55:32Z</time>
      </trkpt>
      <trkpt lat="49.31661" lon="1.23038">
        <ele>24</ele>
        <time>2012-03-06T14:55:38Z</time>
      </trkpt>
      <trkpt lat="49.3167" lon="1.23036">
        <ele>24</ele>
        <time>2012-03-06T14:55:46Z</time>
      </trkpt>
      <trkpt lat="49.3168" lon="1.23035">
        <ele>24</ele>
        <time>2012-03-06T14:55:55Z</time>
      </trkpt>
      <trkpt lat="49.31691" lon="1.23033">
        <ele>24</ele>
        <time>2012-03-06T14:56:03Z</time>
      </trkpt>
      <trkpt lat="49.31701" lon="1.23032">
        <ele>24</ele>
        <time>2012-03-06T14:56:11Z</time>
      </trkpt>
      <trkpt lat="49.31711" lon="1.23032">
        <ele>24</ele>
        <time>2012-03-06T14:56:18Z</time>
      </trkpt>
      <trkpt lat="49.3172" lon="1.23032">
        <ele>24</ele>
        <time>2012-03-06T14:56:25Z</time>
      </trkpt>
      <trkpt lat="49.3173" lon="1.23031">
        <ele>24</ele>
        <time>2012-03-06T14:56:32Z</time>
      </trkpt>
      <trkpt lat="49.3174" lon="1.23032">
        <ele>24</ele>
        <time>2012-03-06T14:56:38Z</time>
      </trkpt>
      <trkpt lat="49.3175" lon="1.2303">
        <ele>24</ele>
        <time>2012-03-06T14:56:46Z</time>
      </trkpt>
      <trkpt lat="49.3176" lon="1.23028">
        <ele>24</ele>
        <time>2012-03-06T14:56:54Z</time>
      </trkpt>
      <trkpt lat="49.31769" lon="1.23032">
        <ele>24</ele>
        <time>2012-03-06T14:56:59Z</time>
      </trkpt>
      <trkpt lat="49.31779" lon="1.23029">
        <ele>24</ele>
        <time>2012-03-06T14:57:09Z</time>
      </trkpt>
      <trkpt lat="49.31788" lon="1.23029">
        <ele>19</ele>
        <time>2012-03-06T14:57:16Z</time>
      </trkpt>
      <trkpt lat="49.31799" lon="1.2303">
        <ele>19</ele>
        <time>2012-03-06T14:57:23Z</time>
      </trkpt>
      <trkpt lat="49.3181" lon="1.23031">
        <ele>19</ele>
        <time>2012-03-06T14:57:32Z</time>
      </trkpt>
      <trkpt lat="49.3182" lon="1.23029">
        <ele>19</ele>
        <time>2012-03-06T14:57:41Z</time>
      </trkpt>
      <trkpt lat="49.31829" lon="1.23028">
        <ele>19</ele>
        <time>2012-03-06T14:57:49Z</time>
      </trkpt>
      <trkpt lat="49.31838" lon="1.23029">
        <ele>19</ele>
        <time>2012-03-06T14:57:57Z</time>
      </trkpt>
      <trkpt lat="49.31848" lon="1.23032">
        <ele>19</ele>
        <time>2012-03-06T14:58:05Z</time>
      </trkpt>
      <trkpt lat="49.31858" lon="1.23036">
        <ele>19</ele>
        <time>2012-03-06T14:58:11Z</time>
      </trkpt>
      <trkpt lat="49.31867" lon="1.23042">
        <ele>19</ele>
        <time>2012-03-06T14:58:16Z</time>
      </trkpt>
      <trkpt lat="49.31875" lon="1.23049">
        <ele>19</ele>
        <time>2012-03-06T14:58:24Z</time>
      </trkpt>
      <trkpt lat="49.31884" lon="1.23058">
        <ele>19</ele>
        <time>2012-03-06T14:58:31Z</time>
      </trkpt>
      <trkpt lat="49.31892" lon="1.23066">
        <ele>13</ele>
        <time>2012-03-06T14:58:39Z</time>
      </trkpt>
      <trkpt lat="49.319" lon="1.23074">
        <ele>13</ele>
        <time>2012-03-06T14:58:50Z</time>
      </trkpt>
      <trkpt lat="49.31909" lon="1.23079">
        <ele>13</ele>
        <time>2012-03-06T14:58:59Z</time>
      </trkpt>
      <trkpt lat="49.31919" lon="1.23081">
        <ele>13</ele>
        <time>2012-03-06T14:59:07Z</time>
      </trkpt>
      <trkpt lat="49.31928" lon="1.23085">
        <ele>13</ele>
        <time>2012-03-06T14:59:15Z</time>
      </trkpt>
      <trkpt lat="49.31938" lon="1.2309">
        <ele>13</ele>
        <time>2012-03-06T14:59:24Z</time>
      </trkpt>
      <trkpt lat="49.31948" lon="1.23092">
        <ele>21</ele>
        <time>2012-03-06T14:59:35Z</time>
      </trkpt>
      <trkpt lat="49.31957" lon="1.23095">
        <ele>21</ele>
        <time>2012-03-06T14:59:41Z</time>
      </trkpt>
      <trkpt lat="49.31968" lon="1.23098">
        <ele>16</ele>
        <time>2012-03-06T14:59:49Z</time>
      </trkpt>
      <trkpt lat="49.31977" lon="1.23097">
        <ele>16</ele>
        <time>2012-03-06T14:59:57Z</time>
      </trkpt>
      <trkpt lat="49.31986" lon="1.23102">
        <ele>16</ele>
        <time>2012-03-06T15:00:09Z</time>
      </trkpt>
      <trkpt lat="49.31995" lon="1.23102">
        <ele>16</ele>
        <time>2012-03-06T15:01:01Z</time>
      </trkpt>
      <trkpt lat="49.32005" lon="1.231">
        <ele>16</ele>
        <time>2012-03-06T15:01:11Z</time>
      </trkpt>
      <trkpt lat="49.32013" lon="1.23096">
        <ele>16</ele>
        <time>2012-03-06T15:01:22Z</time>
      </trkpt>
      <trkpt lat="49.32022" lon="1.23093">
        <ele>16</ele>
        <time>2012-03-06T15:01:30Z</time>
      </trkpt>
      <trkpt lat="49.32032" lon="1.23086">
        <ele>16</ele>
        <time>2012-03-06T15:01:39Z</time>
      </trkpt>
      <trkpt lat="49.32039" lon="1.23078">
        <ele>16</ele>
        <time>2012-03-06T15:01:48Z</time>
      </trkpt>
      <trkpt lat="49.32049" lon="1.23073">
        <ele>11</ele>
        <time>2012-03-06T15:01:57Z</time>
      </trkpt>
      <trkpt lat="49.32057" lon="1.23067">
        <ele>11</ele>
        <time>2012-03-06T15:02:05Z</time>
      </trkpt>
      <trkpt lat="49.32065" lon="1.23058">
        <ele>11</ele>
        <time>2012-03-06T15:02:14Z</time>
      </trkpt>
      <trkpt lat="49.32073" lon="1.23052">
        <ele>11</ele>
        <time>2012-03-06T15:02:23Z</time>
      </trkpt>
      <trkpt lat="49.32083" lon="1.23046">
        <ele>11</ele>
        <time>2012-03-06T15:02:31Z</time>
      </trkpt>
      <trkpt lat="49.32092" lon="1.2304">
        <ele>11</ele>
        <time>2012-03-06T15:02:39Z</time>
      </trkpt>
      <trkpt lat="49.321" lon="1.23036">
        <ele>11</ele>
        <time>2012-03-06T15:02:47Z</time>
      </trkpt>
      <trkpt lat="49.3211" lon="1.2303">
        <ele>11</ele>
        <time>2012-03-06T15:02:56Z</time>
      </trkpt>
      <trkpt lat="49.32117" lon="1.23022">
        <ele>11</ele>
        <time>2012-03-06T15:03:04Z</time>
      </trkpt>
      <trkpt lat="49.32126" lon="1.23015">
        <ele>11</ele>
        <time>2012-03-06T15:03:11Z</time>
      </trkpt>
      <trkpt lat="49.32134" lon="1.23008">
        <ele>11</ele>
        <time>2012-03-06T15:03:26Z</time>
      </trkpt>
      <trkpt lat="49.32141" lon="1.23017">
        <ele>11</ele>
        <time>2012-03-06T15:03:35Z</time>
      </trkpt>
      <trkpt lat="49.32148" lon="1.23025">
        <ele>11</ele>
        <time>2012-03-06T15:03:44Z</time>
      </trkpt>
      <trkpt lat="49.32155" lon="1.23036">
        <ele>11</ele>
        <time>2012-03-06T15:03:52Z</time>
      </trkpt>
      <trkpt lat="49.32161" lon="1.23049">
        <ele>11</ele>
        <time>2012-03-06T15:04:00Z</time>
      </trkpt>
      <trkpt lat="49.32167" lon="1.23061">
        <ele>11</ele>
        <time>2012-03-06T15:04:09Z</time>
      </trkpt>
      <trkpt lat="49.32174" lon="1.23071">
        <ele>11</ele>
        <time>2012-03-06T15:04:17Z</time>
      </trkpt>
      <trkpt lat="49.3218" lon="1.23082">
        <ele>16</ele>
        <time>2012-03-06T15:04:26Z</time>
      </trkpt>
      <trkpt lat="49.32185" lon="1.23093">
        <ele>16</ele>
        <time>2012-03-06T15:04:35Z</time>
      </trkpt>
      <trkpt lat="49.32191" lon="1.23104">
        <ele>16</ele>
        <time>2012-03-06T15:04:43Z</time>
      </trkpt>
      <trkpt lat="49.32198" lon="1.23115">
        <ele>16</ele>
        <time>2012-03-06T15:04:50Z</time>
      </trkpt>
      <trkpt lat="49.32205" lon="1.23126">
        <ele>16</ele>
        <time>2012-03-06T15:04:57Z</time>
      </trkpt>
      <trkpt lat="49.32209" lon="1.23139">
        <ele>16</ele>
        <time>2012-03-06T15:05:06Z</time>
      </trkpt>
      <trkpt lat="49.32215" lon="1.23151">
        <ele>22</ele>
        <time>2012-03-06T15:05:14Z</time>
      </trkpt>
      <trkpt lat="49.32221" lon="1.23164">
        <ele>22</ele>
        <time>2012-03-06T15:05:23Z</time>
      </trkpt>
      <trkpt lat="49.32227" lon="1.23175">
        <ele>22</ele>
        <time>2012-03-06T15:05:32Z</time>
      </trkpt>
      <trkpt lat="49.32234" lon="1.23187">
        <ele>22</ele>
        <time>2012-03-06T15:05:41Z</time>
      </trkpt>
      <trkpt lat="49.32241" lon="1.23197">
        <ele>22</ele>
        <time>2012-03-06T15:05:49Z</time>
      </trkpt>
      <trkpt lat="49.32248" lon="1.23206">
        <ele>22</ele>
        <time>2012-03-06T15:05:57Z</time>
      </trkpt>
      <trkpt lat="49.32254" lon="1.23217">
        <ele>22</ele>
        <time>2012-03-06T15:06:04Z</time>
      </trkpt>
      <trkpt lat="49.32261" lon="1.23226">
        <ele>22</ele>
        <time>2012-03-06T15:06:12Z</time>
      </trkpt>
      <trkpt lat="49.32267" lon="1.23237">
        <ele>14</ele>
        <time>2012-03-06T15:06:22Z</time>
      </trkpt>
      <trkpt lat="49.32274" lon="1.23248">
        <ele>14</ele>
        <time>2012-03-06T15:06:29Z</time>
      </trkpt>
      <trkpt lat="49.3228" lon="1.23259">
        <ele>14</ele>
        <time>2012-03-06T15:06:36Z</time>
      </trkpt>
      <trkpt lat="49.32285" lon="1.23273">
        <ele>14</ele>
        <time>2012-03-06T15:06:47Z</time>
      </trkpt>
      <trkpt lat="49.32291" lon="1.23285">
        <ele>14</ele>
        <time>2012-03-06T15:06:54Z</time>
      </trkpt>
      <trkpt lat="49.32296" lon="1.23296">
        <ele>14</ele>
        <time>2012-03-06T15:07:03Z</time>
      </trkpt>
      <trkpt lat="49.32304" lon="1.23305">
        <ele>14</ele>
        <time>2012-03-06T15:07:15Z</time>
      </trkpt>
      <trkpt lat="49.32312" lon="1.23314">
        <ele>14</ele>
        <time>2012-03-06T15:07:24Z</time>
      </trkpt>
      <trkpt lat="49.32316" lon="1.23327">
        <ele>14</ele>
        <time>2012-03-06T15:07:32Z</time>
      </trkpt>
      <trkpt lat="49.32316" lon="1.23341">
        <ele>14</ele>
        <time>2012-03-06T15:07:40Z</time>
      </trkpt>
      <trkpt lat="49.32316" lon="1.23358">
        <ele>14</ele>
        <time>2012-03-06T15:07:49Z</time>
      </trkpt>
      <trkpt lat="49.32318" lon="1.23372">
        <ele>14</ele>
        <time>2012-03-06T15:07:57Z</time>
      </trkpt>
      <trkpt lat="49.32318" lon="1.23387">
        <ele>20</ele>
        <time>2012-03-06T15:08:05Z</time>
      </trkpt>
      <trkpt lat="49.32317" lon="1.23402">
        <ele>20</ele>
        <time>2012-03-06T15:08:13Z</time>
      </trkpt>
      <trkpt lat="49.32316" lon="1.23417">
        <ele>20</ele>
        <time>2012-03-06T15:08:21Z</time>
      </trkpt>
      <trkpt lat="49.32316" lon="1.23432">
        <ele>20</ele>
        <time>2012-03-06T15:08:29Z</time>
      </trkpt>
      <trkpt lat="49.32316" lon="1.23447">
        <ele>20</ele>
        <time>2012-03-06T15:08:37Z</time>
      </trkpt>
      <trkpt lat="49.32319" lon="1.23463">
        <ele>20</ele>
        <time>2012-03-06T15:08:45Z</time>
      </trkpt>
      <trkpt lat="49.32321" lon="1.23478">
        <ele>20</ele>
        <time>2012-03-06T15:08:53Z</time>
      </trkpt>
      <trkpt lat="49.32321" lon="1.23493">
        <ele>20</ele>
        <time>2012-03-06T15:09:01Z</time>
      </trkpt>
      <trkpt lat="49.32321" lon="1.23508">
        <ele>20</ele>
        <time>2012-03-06T15:09:09Z</time>
      </trkpt>
      <trkpt lat="49.32323" lon="1.23522">
        <ele>15</ele>
        <time>2012-03-06T15:09:17Z</time>
      </trkpt>
      <trkpt lat="49.32325" lon="1.23535">
        <ele>15</ele>
        <time>2012-03-06T15:09:25Z</time>
      </trkpt>
      <trkpt lat="49.32328" lon="1.23549">
        <ele>15</ele>
        <time>2012-03-06T15:09:33Z</time>
      </trkpt>
      <trkpt lat="49.3233" lon="1.23565">
        <ele>15</ele>
        <time>2012-03-06T15:09:42Z</time>
      </trkpt>
      <trkpt lat="49.32332" lon="1.23579">
        <ele>15</ele>
        <time>2012-03-06T15:09:50Z</time>
      </trkpt>
      <trkpt lat="49.32333" lon="1.23596">
        <ele>15</ele>
        <time>2012-03-06T15:09:58Z</time>
      </trkpt>
      <trkpt lat="49.32338" lon="1.23609">
        <ele>15</ele>
        <time>2012-03-06T15:10:07Z</time>
      </trkpt>
      <trkpt lat="49.32342" lon="1.23623">
        <ele>15</ele>
        <time>2012-03-06T15:10:15Z</time>
      </trkpt>
      <trkpt lat="49.32345" lon="1.23636">
        <ele>15</ele>
        <time>2012-03-06T15:10:23Z</time>
      </trkpt>
      <trkpt lat="49.32348" lon="1.2365">
        <ele>15</ele>
        <time>2012-03-06T15:10:32Z</time>
      </trkpt>
      <trkpt lat="49.32351" lon="1.23664">
        <ele>15</ele>
        <time>2012-03-06T15:10:39Z</time>
      </trkpt>
      <trkpt lat="49.32355" lon="1.23677">
        <ele>15</ele>
        <time>2012-03-06T15:10:47Z</time>
      </trkpt>
      <trkpt lat="49.32358" lon="1.23692">
        <ele>15</ele>
        <time>2012-03-06T15:10:55Z</time>
      </trkpt>
      <trkpt lat="49.32364" lon="1.23704">
        <ele>15</ele>
        <time>2012-03-06T15:11:03Z</time>
      </trkpt>
      <trkpt lat="49.32367" lon="1.23719">
        <ele>15</ele>
        <time>2012-03-06T15:11:11Z</time>
      </trkpt>
      <trkpt lat="49.32368" lon="1.23734">
        <ele>15</ele>
        <time>2012-03-06T15:11:19Z</time>
      </trkpt>
      <trkpt lat="49.32368" lon="1.23748">
        <ele>15</ele>
        <time>2012-03-06T15:11:27Z</time>
      </trkpt>
      <trkpt lat="49.3237" lon="1.23763">
        <ele>15</ele>
        <time>2012-03-06T15:11:35Z</time>
      </trkpt>
      <trkpt lat="49.32373" lon="1.23776">
        <ele>15</ele>
        <time>2012-03-06T15:11:42Z</time>
      </trkpt>
      <trkpt lat="49.32373" lon="1.23791">
        <ele>15</ele>
        <time>2012-03-06T15:11:57Z</time>
      </trkpt>
      <trkpt lat="49.32375" lon="1.23805">
        <ele>15</ele>
        <time>2012-03-06T15:12:05Z</time>
      </trkpt>
      <trkpt lat="49.32375" lon="1.23819">
        <ele>15</ele>
        <time>2012-03-06T15:12:13Z</time>
      </trkpt>
      <trkpt lat="49.3237" lon="1.23832">
        <ele>15</ele>
        <time>2012-03-06T15:12:20Z</time>
      </trkpt>
      <trkpt lat="49.32361" lon="1.23839">
        <ele>15</ele>
        <time>2012-03-06T15:12:27Z</time>
      </trkpt>
      <trkpt lat="49.32352" lon="1.23845">
        <ele>15</ele>
        <time>2012-03-06T15:12:34Z</time>
      </trkpt>
      <trkpt lat="49.32343" lon="1.23851">
        <ele>15</ele>
        <time>2012-03-06T15:12:41Z</time>
      </trkpt>
      <trkpt lat="49.32334" lon="1.23856">
        <ele>15</ele>
        <time>2012-03-06T15:12:49Z</time>
      </trkpt>
      <trkpt lat="49.32325" lon="1.23862">
        <ele>15</ele>
        <time>2012-03-06T15:13:00Z</time>
      </trkpt>
      <trkpt lat="49.32328" lon="1.23876">
        <ele>15</ele>
        <time>2012-03-06T15:13:09Z</time>
      </trkpt>
      <trkpt lat="49.32333" lon="1.23889">
        <ele>15</ele>
        <time>2012-03-06T15:13:17Z</time>
      </trkpt>
      <trkpt lat="49.32338" lon="1.23902">
        <ele>15</ele>
        <time>2012-03-06T15:13:26Z</time>
      </trkpt>
      <trkpt lat="49.32342" lon="1.23915">
        <ele>15</ele>
        <time>2012-03-06T15:13:34Z</time>
      </trkpt>
      <trkpt lat="49.32347" lon="1.23927">
        <ele>15</ele>
        <time>2012-03-06T15:13:42Z</time>
      </trkpt>
      <trkpt lat="49.32353" lon="1.23938">
        <ele>15</ele>
        <time>2012-03-06T15:13:56Z</time>
      </trkpt>
      <trkpt lat="49.32356" lon="1.23951">
        <ele>15</ele>
        <time>2012-03-06T15:19:25Z</time>
      </trkpt>
      <trkpt lat="49.32359" lon="1.23965">
        <ele>5</ele>
        <time>2012-03-06T15:20:43Z</time>
      </trkpt>
      <trkpt lat="49.32364" lon="1.23977">
        <ele>5</ele>
        <time>2012-03-06T15:20:53Z</time>
      </trkpt>
      <trkpt lat="49.32369" lon="1.23991">
        <ele>5</ele>
        <time>2012-03-06T15:21:03Z</time>
      </trkpt>
      <trkpt lat="49.32373" lon="1.24004">
        <ele>5</ele>
        <time>2012-03-06T15:21:12Z</time>
      </trkpt>
      <trkpt lat="49.32377" lon="1.24017">
        <ele>5</ele>
        <time>2012-03-06T15:21:20Z</time>
      </trkpt>
      <trkpt lat="49.32383" lon="1.2403">
        <ele>5</ele>
        <time>2012-03-06T15:21:29Z</time>
      </trkpt>
      <trkpt lat="49.32387" lon="1.24042">
        <ele>5</ele>
        <time>2012-03-06T15:21:37Z</time>
      </trkpt>
      <trkpt lat="49.32392" lon="1.24055">
        <ele>5</ele>
        <time>2012-03-06T15:21:45Z</time>
      </trkpt>
      <trkpt lat="49.32397" lon="1.24066">
        <ele>5</ele>
        <time>2012-03-06T15:21:53Z</time>
      </trkpt>
      <trkpt lat="49.32402" lon="1.24079">
        <ele>5</ele>
        <time>2012-03-06T15:22:01Z</time>
      </trkpt>
      <trkpt lat="49.32406" lon="1.24092">
        <ele>5</ele>
        <time>2012-03-06T15:22:09Z</time>
      </trkpt>
      <trkpt lat="49.3241" lon="1.24104">
        <ele>5</ele>
        <time>2012-03-06T15:22:17Z</time>
      </trkpt>
      <trkpt lat="49.32416" lon="1.24117">
        <ele>5</ele>
        <time>2012-03-06T15:22:25Z</time>
      </trkpt>
      <trkpt lat="49.3242" lon="1.2413">
        <ele>5</ele>
        <time>2012-03-06T15:22:33Z</time>
      </trkpt>
      <trkpt lat="49.32424" lon="1.24143">
        <ele>5</ele>
        <time>2012-03-06T15:22:41Z</time>
      </trkpt>
      <trkpt lat="49.32429" lon="1.24155">
        <ele>5</ele>
        <time>2012-03-06T15:22:49Z</time>
      </trkpt>
      <trkpt lat="49.32434" lon="1.24169">
        <ele>5</ele>
        <time>2012-03-06T15:22:58Z</time>
      </trkpt>
      <trkpt lat="49.32439" lon="1.24181">
        <ele>5</ele>
        <time>2012-03-06T15:23:06Z</time>
      </trkpt>
      <trkpt lat="49.32443" lon="1.24194">
        <ele>5</ele>
        <time>2012-03-06T15:23:15Z</time>
      </trkpt>
      <trkpt lat="49.32449" lon="1.24207">
        <ele>5</ele>
        <time>2012-03-06T15:23:23Z</time>
      </trkpt>
      <trkpt lat="49.32453" lon="1.2422">
        <ele>5</ele>
        <time>2012-03-06T15:23:31Z</time>
      </trkpt>
      <trkpt lat="49.32459" lon="1.24233">
        <ele>5</ele>
        <time>2012-03-06T15:23:40Z</time>
      </trkpt>
      <trkpt lat="49.32465" lon="1.24246">
        <ele>5</ele>
        <time>2012-03-06T15:23:49Z</time>
      </trkpt>
      <trkpt lat="49.3247" lon="1.24259">
        <ele>5</ele>
        <time>2012-03-06T15:23:57Z</time>
      </trkpt>
      <trkpt lat="49.32475" lon="1.2427">
        <ele>5</ele>
        <time>2012-03-06T15:24:05Z</time>
      </trkpt>
      <trkpt lat="49.3248" lon="1.24282">
        <ele>5</ele>
        <time>2012-03-06T15:24:13Z</time>
      </trkpt>
      <trkpt lat="49.32485" lon="1.24295">
        <ele>5</ele>
        <time>2012-03-06T15:24:21Z</time>
      </trkpt>
      <trkpt lat="49.32491" lon="1.24307">
        <ele>5</ele>
        <time>2012-03-06T15:24:29Z</time>
      </trkpt>
      <trkpt lat="49.32496" lon="1.24319">
        <ele>5</ele>
        <time>2012-03-06T15:24:37Z</time>
      </trkpt>
      <trkpt lat="49.32501" lon="1.2433">
        <ele>5</ele>
        <time>2012-03-06T15:24:45Z</time>
      </trkpt>
      <trkpt lat="49.32507" lon="1.24343">
        <ele>5</ele>
        <time>2012-03-06T15:24:55Z</time>
      </trkpt>
      <trkpt lat="49.32511" lon="1.24357">
        <ele>5</ele>
        <time>2012-03-06T15:25:04Z</time>
      </trkpt>
      <trkpt lat="49.32517" lon="1.24368">
        <ele>5</ele>
        <time>2012-03-06T15:25:12Z</time>
      </trkpt>
      <trkpt lat="49.32522" lon="1.24381">
        <ele>5</ele>
        <time>2012-03-06T15:25:20Z</time>
      </trkpt>
      <trkpt lat="49.32528" lon="1.24392">
        <ele>5</ele>
        <time>2012-03-06T15:25:28Z</time>
      </trkpt>
      <trkpt lat="49.32534" lon="1.24405">
        <ele>5</ele>
        <time>2012-03-06T15:25:36Z</time>
      </trkpt>
      <trkpt lat="49.3254" lon="1.24418">
        <ele>5</ele>
        <time>2012-03-06T15:25:44Z</time>
      </trkpt>
      <trkpt lat="49.32545" lon="1.24429">
        <ele>5</ele>
        <time>2012-03-06T15:25:52Z</time>
      </trkpt>
      <trkpt lat="49.32551" lon="1.24441">
        <ele>5</ele>
        <time>2012-03-06T15:26:00Z</time>
      </trkpt>
      <trkpt lat="49.32557" lon="1.24454">
        <ele>5</ele>
        <time>2012-03-06T15:26:09Z</time>
      </trkpt>
      <trkpt lat="49.32563" lon="1.24465">
        <ele>5</ele>
        <time>2012-03-06T15:26:17Z</time>
      </trkpt>
      <trkpt lat="49.32569" lon="1.24477">
        <ele>5</ele>
        <time>2012-03-06T15:26:25Z</time>
      </trkpt>
      <trkpt lat="49.32575" lon="1.24489">
        <ele>5</ele>
        <time>2012-03-06T15:26:33Z</time>
      </trkpt>
      <trkpt lat="49.32581" lon="1.24501">
        <ele>5</ele>
        <time>2012-03-06T15:26:41Z</time>
      </trkpt>
      <trkpt lat="49.32586" lon="1.24513">
        <ele>5</ele>
        <time>2012-03-06T15:26:49Z</time>
      </trkpt>
      <trkpt lat="49.32591" lon="1.24525">
        <ele>5</ele>
        <time>2012-03-06T15:26:57Z</time>
      </trkpt>
      <trkpt lat="49.32596" lon="1.24537">
        <ele>5</ele>
        <time>2012-03-06T15:27:05Z</time>
      </trkpt>
      <trkpt lat="49.32601" lon="1.24551">
        <ele>5</ele>
        <time>2012-03-06T15:27:14Z</time>
      </trkpt>
      <trkpt lat="49.32606" lon="1.24563">
        <ele>5</ele>
        <time>2012-03-06T15:27:23Z</time>
      </trkpt>
      <trkpt lat="49.32612" lon="1.24575">
        <ele>5</ele>
        <time>2012-03-06T15:27:31Z</time>
      </trkpt>
      <trkpt lat="49.32618" lon="1.24586">
        <ele>5</ele>
        <time>2012-03-06T15:27:39Z</time>
      </trkpt>
      <trkpt lat="49.32623" lon="1.24598">
        <ele>5</ele>
        <time>2012-03-06T15:27:47Z</time>
      </trkpt>
      <trkpt lat="49.32628" lon="1.24612">
        <ele>5</ele>
        <time>2012-03-06T15:27:56Z</time>
      </trkpt>
      <trkpt lat="49.32632" lon="1.24625">
        <ele>5</ele>
        <time>2012-03-06T15:28:04Z</time>
      </trkpt>
      <trkpt lat="49.32636" lon="1.24639">
        <ele>5</ele>
        <time>2012-03-06T15:28:13Z</time>
      </trkpt>
      <trkpt lat="49.32641" lon="1.24653">
        <ele>5</ele>
        <time>2012-03-06T15:28:22Z</time>
      </trkpt>
      <trkpt lat="49.32646" lon="1.24666">
        <ele>5</ele>
        <time>2012-03-06T15:28:29Z</time>
      </trkpt>
      <trkpt lat="49.32651" lon="1.24679">
        <ele>5</ele>
        <time>2012-03-06T15:28:37Z</time>
      </trkpt>
      <trkpt lat="49.32656" lon="1.24692">
        <ele>5</ele>
        <time>2012-03-06T15:28:45Z</time>
      </trkpt>
      <trkpt lat="49.32661" lon="1.24705">
        <ele>5</ele>
        <time>2012-03-06T15:28:53Z</time>
      </trkpt>
      <trkpt lat="49.32665" lon="1.24719">
        <ele>5</ele>
        <time>2012-03-06T15:29:02Z</time>
      </trkpt>
      <trkpt lat="49.3267" lon="1.24731">
        <ele>5</ele>
        <time>2012-03-06T15:29:10Z</time>
      </trkpt>
      <trkpt lat="49.32675" lon="1.24745">
        <ele>5</ele>
        <time>2012-03-06T15:29:18Z</time>
      </trkpt>
      <trkpt lat="49.3268" lon="1.24757">
        <ele>5</ele>
        <time>2012-03-06T15:29:26Z</time>
      </trkpt>
      <trkpt lat="49.32684" lon="1.24771">
        <ele>5</ele>
        <time>2012-03-06T15:29:34Z</time>
      </trkpt>
      <trkpt lat="49.32688" lon="1.24783">
        <ele>5</ele>
        <time>2012-03-06T15:29:42Z</time>
      </trkpt>
      <trkpt lat="49.32693" lon="1.24796">
        <ele>5</ele>
        <time>2012-03-06T15:29:50Z</time>
      </trkpt>
      <trkpt lat="49.32697" lon="1.24808">
        <ele>5</ele>
        <time>2012-03-06T15:29:58Z</time>
      </trkpt>
      <trkpt lat="49.32703" lon="1.24822">
        <ele>5</ele>
        <time>2012-03-06T15:30:06Z</time>
      </trkpt>
      <trkpt lat="49.32707" lon="1.24836">
        <ele>5</ele>
        <time>2012-03-06T15:30:15Z</time>
      </trkpt>
      <trkpt lat="49.32711" lon="1.24849">
        <ele>5</ele>
        <time>2012-03-06T15:30:22Z</time>
      </trkpt>
      <trkpt lat="49.32716" lon="1.24862">
        <ele>5</ele>
        <time>2012-03-06T15:30:31Z</time>
      </trkpt>
      <trkpt lat="49.32719" lon="1.24877">
        <ele>5</ele>
        <time>2012-03-06T15:30:39Z</time>
      </trkpt>
      <trkpt lat="49.32723" lon="1.24889">
        <ele>5</ele>
        <time>2012-03-06T15:30:47Z</time>
      </trkpt>
      <trkpt lat="49.32726" lon="1.24903">
        <ele>5</ele>
        <time>2012-03-06T15:30:54Z</time>
      </trkpt>
      <trkpt lat="49.3273" lon="1.24915">
        <ele>5</ele>
        <time>2012-03-06T15:31:01Z</time>
      </trkpt>
      <trkpt lat="49.32733" lon="1.2493">
        <ele>5</ele>
        <time>2012-03-06T15:31:10Z</time>
      </trkpt>
      <trkpt lat="49.32737" lon="1.24942">
        <ele>5</ele>
        <time>2012-03-06T15:31:26Z</time>
      </trkpt>
      <trkpt lat="49.3274" lon="1.24957">
        <ele>5</ele>
        <time>2012-03-06T15:31:34Z</time>
      </trkpt>
      <trkpt lat="49.3274" lon="1.24971">
        <ele>5</ele>
        <time>2012-03-06T15:31:42Z</time>
      </trkpt>
      <trkpt lat="49.32743" lon="1.24986">
        <ele>5</ele>
        <time>2012-03-06T15:31:51Z</time>
      </trkpt>
      <trkpt lat="49.32745" lon="1.25001">
        <ele>5</ele>
        <time>2012-03-06T15:31:59Z</time>
      </trkpt>
      <trkpt lat="49.32747" lon="1.25014">
        <ele>5</ele>
        <time>2012-03-06T15:32:06Z</time>
      </trkpt>
      <trkpt lat="49.32749" lon="1.25029">
        <ele>5</ele>
        <time>2012-03-06T15:32:15Z</time>
      </trkpt>
      <trkpt lat="49.32753" lon="1.25043">
        <ele>5</ele>
        <time>2012-03-06T15:32:23Z</time>
      </trkpt>
      <trkpt lat="49.32756" lon="1.25056">
        <ele>5</ele>
        <time>2012-03-06T15:32:31Z</time>
      </trkpt>
      <trkpt lat="49.32758" lon="1.2507">
        <ele>5</ele>
        <time>2012-03-06T15:32:39Z</time>
      </trkpt>
      <trkpt lat="49.32759" lon="1.25084">
        <ele>5</ele>
        <time>2012-03-06T15:32:47Z</time>
      </trkpt>
      <trkpt lat="49.32761" lon="1.25099">
        <ele>5</ele>
        <time>2012-03-06T15:32:56Z</time>
      </trkpt>
      <trkpt lat="49.32763" lon="1.25114">
        <ele>5</ele>
        <time>2012-03-06T15:33:05Z</time>
      </trkpt>
      <trkpt lat="49.32764" lon="1.25129">
        <ele>5</ele>
        <time>2012-03-06T15:33:13Z</time>
      </trkpt>
      <trkpt lat="49.32769" lon="1.25142">
        <ele>5</ele>
        <time>2012-03-06T15:33:21Z</time>
      </trkpt>
      <trkpt lat="49.32772" lon="1.25156">
        <ele>5</ele>
        <time>2012-03-06T15:33:30Z</time>
      </trkpt>
      <trkpt lat="49.32774" lon="1.2517">
        <ele>5</ele>
        <time>2012-03-06T15:33:38Z</time>
      </trkpt>
      <trkpt lat="49.32775" lon="1.25186">
        <ele>5</ele>
        <time>2012-03-06T15:33:46Z</time>
      </trkpt>
      <trkpt lat="49.32777" lon="1.25201">
        <ele>5</ele>
        <time>2012-03-06T15:33:54Z</time>
      </trkpt>
      <trkpt lat="49.32779" lon="1.25216">
        <ele>5</ele>
        <time>2012-03-06T15:34:04Z</time>
      </trkpt>
      <trkpt lat="49.32781" lon="1.25231">
        <ele>5</ele>
        <time>2012-03-06T15:34:12Z</time>
      </trkpt>
      <trkpt lat="49.32783" lon="1.25246">
        <ele>5</ele>
        <time>2012-03-06T15:34:20Z</time>
      </trkpt>
      <trkpt lat="49.32784" lon="1.2526">
        <ele>5</ele>
        <time>2012-03-06T15:34:28Z</time>
      </trkpt>
      <trkpt lat="49.32785" lon="1.25275">
        <ele>5</ele>
        <time>2012-03-06T15:34:37Z</time>
      </trkpt>
      <trkpt lat="49.32788" lon="1.25288">
        <ele>5</ele>
        <time>2012-03-06T15:34:44Z</time>
      </trkpt>
      <trkpt lat="49.32789" lon="1.25303">
        <ele>5</ele>
        <time>2012-03-06T15:34:53Z</time>
      </trkpt>
      <trkpt lat="49.3279" lon="1.25318">
        <ele>5</ele>
        <time>2012-03-06T15:35:01Z</time>
      </trkpt>
      <trkpt lat="49.3279" lon="1.25332">
        <ele>5</ele>
        <time>2012-03-06T15:35:09Z</time>
      </trkpt>
      <trkpt lat="49.32787" lon="1.25346">
        <ele>5</ele>
        <time>2012-03-06T15:35:17Z</time>
      </trkpt>
      <trkpt lat="49.32785" lon="1.25361">
        <ele>5</ele>
        <time>2012-03-06T15:35:26Z</time>
      </trkpt>
      <trkpt lat="49.32784" lon="1.25375">
        <ele>5</ele>
        <time>2012-03-06T15:35:34Z</time>
      </trkpt>
      <trkpt lat="49.32783" lon="1.25391">
        <ele>5</ele>
        <time>2012-03-06T15:35:42Z</time>
      </trkpt>
      <trkpt lat="49.32781" lon="1.25407">
        <ele>5</ele>
        <time>2012-03-06T15:35:51Z</time>
      </trkpt>
      <trkpt lat="49.32781" lon="1.25422">
        <ele>5</ele>
        <time>2012-03-06T15:35:59Z</time>
      </trkpt>
      <trkpt lat="49.3278" lon="1.25437">
        <ele>5</ele>
        <time>2012-03-06T15:36:07Z</time>
      </trkpt>
      <trkpt lat="49.32779" lon="1.25452">
        <ele>5</ele>
        <time>2012-03-06T15:36:15Z</time>
      </trkpt>
      <trkpt lat="49.32777" lon="1.25466">
        <ele>5</ele>
        <time>2012-03-06T15:36:23Z</time>
      </trkpt>
      <trkpt lat="49.32775" lon="1.25481">
        <ele>5</ele>
        <time>2012-03-06T15:36:32Z</time>
      </trkpt>
      <trkpt lat="49.32774" lon="1.25496">
        <ele>5</ele>
        <time>2012-03-06T15:36:40Z</time>
      </trkpt>
      <trkpt lat="49.32771" lon="1.2551">
        <ele>5</ele>
        <time>2012-03-06T15:36:48Z</time>
      </trkpt>
      <trkpt lat="49.32769" lon="1.25525">
        <ele>5</ele>
        <time>2012-03-06T15:36:57Z</time>
      </trkpt>
      <trkpt lat="49.32768" lon="1.2554">
        <ele>5</ele>
        <time>2012-03-06T15:37:05Z</time>
      </trkpt>
      <trkpt lat="49.32766" lon="1.25554">
        <ele>5</ele>
        <time>2012-03-06T15:37:13Z</time>
      </trkpt>
      <trkpt lat="49.32765" lon="1.25569">
        <ele>5</ele>
        <time>2012-03-06T15:37:22Z</time>
      </trkpt>
      <trkpt lat="49.32763" lon="1.25585">
        <ele>5</ele>
        <time>2012-03-06T15:37:30Z</time>
      </trkpt>
      <trkpt lat="49.32763" lon="1.25599">
        <ele>5</ele>
        <time>2012-03-06T15:37:38Z</time>
      </trkpt>
      <trkpt lat="49.32761" lon="1.25613">
        <ele>5</ele>
        <time>2012-03-06T15:37:46Z</time>
      </trkpt>
      <trkpt lat="49.3276" lon="1.25628">
        <ele>5</ele>
        <time>2012-03-06T15:37:54Z</time>
      </trkpt>
      <trkpt lat="49.32759" lon="1.25642">
        <ele>5</ele>
        <time>2012-03-06T15:38:02Z</time>
      </trkpt>
      <trkpt lat="49.32757" lon="1.25656">
        <ele>5</ele>
        <time>2012-03-06T15:38:10Z</time>
      </trkpt>
      <trkpt lat="49.32756" lon="1.25672">
        <ele>5</ele>
        <time>2012-03-06T15:38:18Z</time>
      </trkpt>
      <trkpt lat="49.32756" lon="1.25687">
        <ele>5</ele>
        <time>2012-03-06T15:38:27Z</time>
      </trkpt>
      <trkpt lat="49.32754" lon="1.25701">
        <ele>5</ele>
        <time>2012-03-06T15:38:34Z</time>
      </trkpt>
      <trkpt lat="49.32752" lon="1.25716">
        <ele>5</ele>
        <time>2012-03-06T15:38:42Z</time>
      </trkpt>
      <trkpt lat="49.32753" lon="1.2573">
        <ele>5</ele>
        <time>2012-03-06T15:38:50Z</time>
      </trkpt>
      <trkpt lat="49.32752" lon="1.25744">
        <ele>5</ele>
        <time>2012-03-06T15:38:58Z</time>
      </trkpt>
      <trkpt lat="49.32749" lon="1.2576">
        <ele>5</ele>
        <time>2012-03-06T15:39:07Z</time>
      </trkpt>
      <trkpt lat="49.3275" lon="1.25774">
        <ele>5</ele>
        <time>2012-03-06T15:39:14Z</time>
      </trkpt>
      <trkpt lat="49.32751" lon="1.25788">
        <ele>5</ele>
        <time>2012-03-06T15:39:21Z</time>
      </trkpt>
      <trkpt lat="49.32753" lon="1.25803">
        <ele>5</ele>
        <time>2012-03-06T15:39:29Z</time>
      </trkpt>
      <trkpt lat="49.32754" lon="1.25817">
        <ele>5</ele>
        <time>2012-03-06T15:39:37Z</time>
      </trkpt>
      <trkpt lat="49.32757" lon="1.25832">
        <ele>5</ele>
        <time>2012-03-06T15:39:46Z</time>
      </trkpt>
      <trkpt lat="49.32759" lon="1.25846">
        <ele>5</ele>
        <time>2012-03-06T15:39:54Z</time>
      </trkpt>
      <trkpt lat="49.32762" lon="1.2586">
        <ele>5</ele>
        <time>2012-03-06T15:40:02Z</time>
      </trkpt>
      <trkpt lat="49.32766" lon="1.25874">
        <ele>5</ele>
        <time>2012-03-06T15:40:10Z</time>
      </trkpt>
      <trkpt lat="49.3277" lon="1.25887">
        <ele>5</ele>
        <time>2012-03-06T15:40:17Z</time>
      </trkpt>
      <trkpt lat="49.32775" lon="1.25902">
        <ele>5</ele>
        <time>2012-03-06T15:40:25Z</time>
      </trkpt>
      <trkpt lat="49.32778" lon="1.25916">
        <ele>5</ele>
        <time>2012-03-06T15:40:33Z</time>
      </trkpt>
      <trkpt lat="49.32781" lon="1.25929">
        <ele>5</ele>
        <time>2012-03-06T15:40:41Z</time>
      </trkpt>
      <trkpt lat="49.32787" lon="1.25943">
        <ele>5</ele>
        <time>2012-03-06T15:40:50Z</time>
      </trkpt>
      <trkpt lat="49.32793" lon="1.25956">
        <ele>5</ele>
        <time>2012-03-06T15:40:59Z</time>
      </trkpt>
      <trkpt lat="49.32797" lon="1.25969">
        <ele>5</ele>
        <time>2012-03-06T15:41:07Z</time>
      </trkpt>
      <trkpt lat="49.32803" lon="1.25981">
        <ele>5</ele>
        <time>2012-03-06T15:41:15Z</time>
      </trkpt>
      <trkpt lat="49.3281" lon="1.2599">
        <ele>5</ele>
        <time>2012-03-06T15:41:23Z</time>
      </trkpt>
      <trkpt lat="49.32816" lon="1.26">
        <ele>5</ele>
        <time>2012-03-06T15:41:32Z</time>
      </trkpt>
      <trkpt lat="49.32824" lon="1.26009">
        <ele>5</ele>
        <time>2012-03-06T15:41:39Z</time>
      </trkpt>
      <trkpt lat="49.3283" lon="1.26019">
        <ele>5</ele>
        <time>2012-03-06T15:41:47Z</time>
      </trkpt>
      <trkpt lat="49.32838" lon="1.26029">
        <ele>5</ele>
        <time>2012-03-06T15:41:55Z</time>
      </trkpt>
      <trkpt lat="49.32845" lon="1.26037">
        <ele>5</ele>
        <time>2012-03-06T15:42:02Z</time>
      </trkpt>
      <trkpt lat="49.32852" lon="1.26047">
        <ele>5</ele>
        <time>2012-03-06T15:42:09Z</time>
      </trkpt>
      <trkpt lat="49.32858" lon="1.26058">
        <ele>5</ele>
        <time>2012-03-06T15:42:16Z</time>
      </trkpt>
      <trkpt lat="49.32865" lon="1.26069">
        <ele>5</ele>
        <time>2012-03-06T15:42:25Z</time>
      </trkpt>
      <trkpt lat="49.32872" lon="1.26078">
        <ele>5</ele>
        <time>2012-03-06T15:42:32Z</time>
      </trkpt>
      <trkpt lat="49.3288" lon="1.26088">
        <ele>5</ele>
        <time>2012-03-06T15:42:41Z</time>
      </trkpt>
      <trkpt lat="49.32887" lon="1.26097">
        <ele>5</ele>
        <time>2012-03-06T15:42:49Z</time>
      </trkpt>
      <trkpt lat="49.32895" lon="1.26106">
        <ele>5</ele>
        <time>2012-03-06T15:42:58Z</time>
      </trkpt>
      <trkpt lat="49.32903" lon="1.26114">
        <ele>5</ele>
        <time>2012-03-06T15:43:06Z</time>
      </trkpt>
      <trkpt lat="49.3291" lon="1.26124">
        <ele>5</ele>
        <time>2012-03-06T15:43:14Z</time>
      </trkpt>
      <trkpt lat="49.32916" lon="1.26134">
        <ele>5</ele>
        <time>2012-03-06T15:43:21Z</time>
      </trkpt>
      <trkpt lat="49.32922" lon="1.26147">
        <ele>5</ele>
        <time>2012-03-06T15:43:29Z</time>
      </trkpt>
      <trkpt lat="49.32926" lon="1.26159">
        <ele>5</ele>
        <time>2012-03-06T15:43:37Z</time>
      </trkpt>
      <trkpt lat="49.32931" lon="1.26172">
        <ele>5</ele>
        <time>2012-03-06T15:43:44Z</time>
      </trkpt>
      <trkpt lat="49.32936" lon="1.26185">
        <ele>5</ele>
        <time>2012-03-06T15:43:51Z</time>
      </trkpt>
      <trkpt lat="49.32939" lon="1.26198">
        <ele>5</ele>
        <time>2012-03-06T15:43:59Z</time>
      </trkpt>
      <trkpt lat="49.32945" lon="1.2621">
        <ele>5</ele>
        <time>2012-03-06T15:44:08Z</time>
      </trkpt>
      <trkpt lat="49.32949" lon="1.26222">
        <ele>5</ele>
        <time>2012-03-06T15:44:16Z</time>
      </trkpt>
      <trkpt lat="49.32955" lon="1.26233">
        <ele>5</ele>
        <time>2012-03-06T15:44:25Z</time>
      </trkpt>
      <trkpt lat="49.32959" lon="1.26247">
        <ele>5</ele>
        <time>2012-03-06T15:44:34Z</time>
      </trkpt>
      <trkpt lat="49.32963" lon="1.2626">
        <ele>5</ele>
        <time>2012-03-06T15:44:42Z</time>
      </trkpt>
      <trkpt lat="49.32965" lon="1.26275">
        <ele>5</ele>
        <time>2012-03-06T15:44:50Z</time>
      </trkpt>
      <trkpt lat="49.32969" lon="1.26288">
        <ele>5</ele>
        <time>2012-03-06T15:44:58Z</time>
      </trkpt>
      <trkpt lat="49.32971" lon="1.26302">
        <ele>5</ele>
        <time>2012-03-06T15:45:06Z</time>
      </trkpt>
      <trkpt lat="49.32973" lon="1.26317">
        <ele>5</ele>
        <time>2012-03-06T15:45:14Z</time>
      </trkpt>
      <trkpt lat="49.32976" lon="1.26331">
        <ele>5</ele>
        <time>2012-03-06T15:45:23Z</time>
      </trkpt>
      <trkpt lat="49.32979" lon="1.26346">
        <ele>5</ele>
        <time>2012-03-06T15:45:32Z</time>
      </trkpt>
      <trkpt lat="49.3298" lon="1.26361">
        <ele>5</ele>
        <time>2012-03-06T15:45:40Z</time>
      </trkpt>
      <trkpt lat="49.32983" lon="1.26376">
        <ele>11</ele>
        <time>2012-03-06T15:45:49Z</time>
      </trkpt>
      <trkpt lat="49.32981" lon="1.2639">
        <ele>11</ele>
        <time>2012-03-06T15:45:58Z</time>
      </trkpt>
      <trkpt lat="49.32981" lon="1.26406">
        <ele>11</ele>
        <time>2012-03-06T15:46:06Z</time>
      </trkpt>
      <trkpt lat="49.32982" lon="1.2642">
        <ele>11</ele>
        <time>2012-03-06T15:46:13Z</time>
      </trkpt>
      <trkpt lat="49.32983" lon="1.26434">
        <ele>11</ele>
        <time>2012-03-06T15:46:20Z</time>
      </trkpt>
      <trkpt lat="49.32983" lon="1.2645">
        <ele>11</ele>
        <time>2012-03-06T15:46:29Z</time>
      </trkpt>
      <trkpt lat="49.32985" lon="1.26465">
        <ele>11</ele>
        <time>2012-03-06T15:46:37Z</time>
      </trkpt>
      <trkpt lat="49.32988" lon="1.26479">
        <ele>11</ele>
        <time>2012-03-06T15:46:45Z</time>
      </trkpt>
      <trkpt lat="49.3299" lon="1.26493">
        <ele>11</ele>
        <time>2012-03-06T15:46:53Z</time>
      </trkpt>
      <trkpt lat="49.32995" lon="1.26506">
        <ele>11</ele>
        <time>2012-03-06T15:47:01Z</time>
      </trkpt>
      <trkpt lat="49.32999" lon="1.2652">
        <ele>11</ele>
        <time>2012-03-06T15:47:09Z</time>
      </trkpt>
      <trkpt lat="49.33002" lon="1.26534">
        <ele>11</ele>
        <time>2012-03-06T15:47:17Z</time>
      </trkpt>
      <trkpt lat="49.33004" lon="1.26548">
        <ele>11</ele>
        <time>2012-03-06T15:47:25Z</time>
      </trkpt>
      <trkpt lat="49.33006" lon="1.26563">
        <ele>11</ele>
        <time>2012-03-06T15:47:33Z</time>
      </trkpt>
      <trkpt lat="49.33009" lon="1.26577">
        <ele>11</ele>
        <time>2012-03-06T15:47:41Z</time>
      </trkpt>
      <trkpt lat="49.33013" lon="1.2659">
        <ele>11</ele>
        <time>2012-03-06T15:47:48Z</time>
      </trkpt>
      <trkpt lat="49.33016" lon="1.26604">
        <ele>11</ele>
        <time>2012-03-06T15:47:56Z</time>
      </trkpt>
      <trkpt lat="49.33019" lon="1.26618">
        <ele>11</ele>
        <time>2012-03-06T15:48:04Z</time>
      </trkpt>
      <trkpt lat="49.33023" lon="1.26632">
        <ele>11</ele>
        <time>2012-03-06T15:48:12Z</time>
      </trkpt>
      <trkpt lat="49.33027" lon="1.26645">
        <ele>11</ele>
        <time>2012-03-06T15:48:20Z</time>
      </trkpt>
      <trkpt lat="49.33031" lon="1.2666">
        <ele>11</ele>
        <time>2012-03-06T15:48:28Z</time>
      </trkpt>
      <trkpt lat="49.33036" lon="1.26673">
        <ele>11</ele>
        <time>2012-03-06T15:48:37Z</time>
      </trkpt>
      <trkpt lat="49.33039" lon="1.26687">
        <ele>11</ele>
        <time>2012-03-06T15:48:45Z</time>
      </trkpt>
      <trkpt lat="49.33042" lon="1.267">
        <ele>11</ele>
        <time>2012-03-06T15:48:52Z</time>
      </trkpt>
      <trkpt lat="49.33043" lon="1.26715">
        <ele>11</ele>
        <time>2012-03-06T15:48:59Z</time>
      </trkpt>
      <trkpt lat="49.33047" lon="1.26729">
        <ele>11</ele>
        <time>2012-03-06T15:49:07Z</time>
      </trkpt>
      <trkpt lat="49.33049" lon="1.26743">
        <ele>11</ele>
        <time>2012-03-06T15:49:15Z</time>
      </trkpt>
      <trkpt lat="49.33053" lon="1.26757">
        <ele>11</ele>
        <time>2012-03-06T15:49:23Z</time>
      </trkpt>
      <trkpt lat="49.33057" lon="1.2677">
        <ele>11</ele>
        <time>2012-03-06T15:49:31Z</time>
      </trkpt>
      <trkpt lat="49.33059" lon="1.26784">
        <ele>11</ele>
        <time>2012-03-06T15:49:39Z</time>
      </trkpt>
      <trkpt lat="49.33062" lon="1.26798">
        <ele>11</ele>
        <time>2012-03-06T15:49:47Z</time>
      </trkpt>
      <trkpt lat="49.33064" lon="1.26812">
        <ele>11</ele>
        <time>2012-03-06T15:49:55Z</time>
      </trkpt>
      <trkpt lat="49.33066" lon="1.26826">
        <ele>11</ele>
        <time>2012-03-06T15:50:03Z</time>
      </trkpt>
      <trkpt lat="49.33068" lon="1.26839">
        <ele>11</ele>
        <time>2012-03-06T15:50:11Z</time>
      </trkpt>
      <trkpt lat="49.3307" lon="1.26854">
        <ele>11</ele>
        <time>2012-03-06T15:50:19Z</time>
      </trkpt>
      <trkpt lat="49.33073" lon="1.26867">
        <ele>11</ele>
        <time>2012-03-06T15:50:28Z</time>
      </trkpt>
      <trkpt lat="49.33077" lon="1.26882">
        <ele>11</ele>
        <time>2012-03-06T15:50:37Z</time>
      </trkpt>
      <trkpt lat="49.3308" lon="1.26896">
        <ele>11</ele>
        <time>2012-03-06T15:50:46Z</time>
      </trkpt>
      <trkpt lat="49.33083" lon="1.2691">
        <ele>5</ele>
        <time>2012-03-06T15:50:53Z</time>
      </trkpt>
      <trkpt lat="49.33086" lon="1.26924">
        <ele>5</ele>
        <time>2012-03-06T15:51:02Z</time>
      </trkpt>
      <trkpt lat="49.33091" lon="1.26936">
        <ele>5</ele>
        <time>2012-03-06T15:51:11Z</time>
      </trkpt>
      <trkpt lat="49.33094" lon="1.2695">
        <ele>5</ele>
        <time>2012-03-06T15:51:19Z</time>
      </trkpt>
      <trkpt lat="49.331" lon="1.26963">
        <ele>5</ele>
        <time>2012-03-06T15:51:28Z</time>
      </trkpt>
      <trkpt lat="49.33106" lon="1.26974">
        <ele>11</ele>
        <time>2012-03-06T15:51:37Z</time>
      </trkpt>
      <trkpt lat="49.33113" lon="1.26985">
        <ele>11</ele>
        <time>2012-03-06T15:51:45Z</time>
      </trkpt>
      <trkpt lat="49.33118" lon="1.26996">
        <ele>11</ele>
        <time>2012-03-06T15:51:53Z</time>
      </trkpt>
      <trkpt lat="49.33124" lon="1.27007">
        <ele>5</ele>
        <time>2012-03-06T15:52:00Z</time>
      </trkpt>
      <trkpt lat="49.3313" lon="1.27017">
        <ele>5</ele>
        <time>2012-03-06T15:52:07Z</time>
      </trkpt>
      <trkpt lat="49.33137" lon="1.27029">
        <ele>5</ele>
        <time>2012-03-06T15:52:15Z</time>
      </trkpt>
      <trkpt lat="49.33143" lon="1.2704">
        <ele>5</ele>
        <time>2012-03-06T15:52:24Z</time>
      </trkpt>
      <trkpt lat="49.33149" lon="1.27051">
        <ele>5</ele>
        <time>2012-03-06T15:52:32Z</time>
      </trkpt>
      <trkpt lat="49.33155" lon="1.27061">
        <ele>5</ele>
        <time>2012-03-06T15:52:39Z</time>
      </trkpt>
      <trkpt lat="49.33161" lon="1.27072">
        <ele>5</ele>
        <time>2012-03-06T15:52:47Z</time>
      </trkpt>
      <trkpt lat="49.33168" lon="1.27083">
        <ele>5</ele>
        <time>2012-03-06T15:52:55Z</time>
      </trkpt>
      <trkpt lat="49.33174" lon="1.27094">
        <ele>5</ele>
        <time>2012-03-06T15:53:02Z</time>
      </trkpt>
      <trkpt lat="49.3318" lon="1.27106">
        <ele>5</ele>
        <time>2012-03-06T15:53:10Z</time>
      </trkpt>
      <trkpt lat="49.33185" lon="1.27117">
        <ele>5</ele>
        <time>2012-03-06T15:53:17Z</time>
      </trkpt>
      <trkpt lat="49.33191" lon="1.27129">
        <ele>5</ele>
        <time>2012-03-06T15:53:24Z</time>
      </trkpt>
      <trkpt lat="49.33196" lon="1.27141">
        <ele>5</ele>
        <time>2012-03-06T15:53:32Z</time>
      </trkpt>
      <trkpt lat="49.33202" lon="1.27154">
        <ele>5</ele>
        <time>2012-03-06T15:53:40Z</time>
      </trkpt>
      <trkpt lat="49.33207" lon="1.27166">
        <ele>5</ele>
        <time>2012-03-06T15:53:48Z</time>
      </trkpt>
      <trkpt lat="49.33213" lon="1.27177">
        <ele>5</ele>
        <time>2012-03-06T15:53:55Z</time>
      </trkpt>
      <trkpt lat="49.33219" lon="1.2719">
        <ele>5</ele>
        <time>2012-03-06T15:54:03Z</time>
      </trkpt>
      <trkpt lat="49.33225" lon="1.27201">
        <ele>11</ele>
        <time>2012-03-06T15:54:12Z</time>
      </trkpt>
      <trkpt lat="49.33229" lon="1.27213">
        <ele>11</ele>
        <time>2012-03-06T15:54:19Z</time>
      </trkpt>
      <trkpt lat="49.33235" lon="1.27226">
        <ele>11</ele>
        <time>2012-03-06T15:54:27Z</time>
      </trkpt>
      <trkpt lat="49.3324" lon="1.27238">
        <ele>11</ele>
        <time>2012-03-06T15:54:35Z</time>
      </trkpt>
      <trkpt lat="49.33245" lon="1.2725">
        <ele>11</ele>
        <time>2012-03-06T15:54:43Z</time>
      </trkpt>
      <trkpt lat="49.33251" lon="1.27262">
        <ele>11</ele>
        <time>2012-03-06T15:54:51Z</time>
      </trkpt>
      <trkpt lat="49.33257" lon="1.27273">
        <ele>11</ele>
        <time>2012-03-06T15:54:59Z</time>
      </trkpt>
      <trkpt lat="49.33263" lon="1.27285">
        <ele>11</ele>
        <time>2012-03-06T15:55:07Z</time>
      </trkpt>
      <trkpt lat="49.33269" lon="1.27298">
        <ele>11</ele>
        <time>2012-03-06T15:55:16Z</time>
      </trkpt>
      <trkpt lat="49.33274" lon="1.2731">
        <ele>11</ele>
        <time>2012-03-06T15:55:25Z</time>
      </trkpt>
      <trkpt lat="49.3328" lon="1.27321">
        <ele>11</ele>
        <time>2012-03-06T15:55:33Z</time>
      </trkpt>
      <trkpt lat="49.33287" lon="1.27331">
        <ele>16</ele>
        <time>2012-03-06T15:55:41Z</time>
      </trkpt>
      <trkpt lat="49.3329" lon="1.27345">
        <ele>16</ele>
        <time>2012-03-06T15:55:49Z</time>
      </trkpt>
      <trkpt lat="49.33295" lon="1.27358">
        <ele>16</ele>
        <time>2012-03-06T15:55:57Z</time>
      </trkpt>
      <trkpt lat="49.333" lon="1.27371">
        <ele>16</ele>
        <time>2012-03-06T15:56:06Z</time>
      </trkpt>
      <trkpt lat="49.33306" lon="1.27382">
        <ele>16</ele>
        <time>2012-03-06T15:56:13Z</time>
      </trkpt>
      <trkpt lat="49.33312" lon="1.27395">
        <ele>16</ele>
        <time>2012-03-06T15:56:21Z</time>
      </trkpt>
      <trkpt lat="49.33317" lon="1.27406">
        <ele>16</ele>
        <time>2012-03-06T15:56:30Z</time>
      </trkpt>
      <trkpt lat="49.33322" lon="1.2742">
        <ele>16</ele>
        <time>2012-03-06T15:56:39Z</time>
      </trkpt>
      <trkpt lat="49.33327" lon="1.27432">
        <ele>16</ele>
        <time>2012-03-06T15:56:49Z</time>
      </trkpt>
      <trkpt lat="49.33335" lon="1.27443">
        <ele>16</ele>
        <time>2012-03-06T15:56:57Z</time>
      </trkpt>
      <trkpt lat="49.3334" lon="1.27454">
        <ele>16</ele>
        <time>2012-03-06T15:57:05Z</time>
      </trkpt>
      <trkpt lat="49.33347" lon="1.27466">
        <ele>16</ele>
        <time>2012-03-06T15:57:14Z</time>
      </trkpt>
      <trkpt lat="49.33353" lon="1.27477">
        <ele>16</ele>
        <time>2012-03-06T15:57:23Z</time>
      </trkpt>
      <trkpt lat="49.3336" lon="1.27485">
        <ele>16</ele>
        <time>2012-03-06T15:57:33Z</time>
      </trkpt>
      <trkpt lat="49.33364" lon="1.27498">
        <ele>16</ele>
        <time>2012-03-06T15:57:43Z</time>
      </trkpt>
      <trkpt lat="49.33363" lon="1.27513">
        <ele>16</ele>
        <time>2012-03-06T15:57:52Z</time>
      </trkpt>
      <trkpt lat="49.33362" lon="1.27528">
        <ele>16</ele>
        <time>2012-03-06T15:58:00Z</time>
      </trkpt>
      <trkpt lat="49.33357" lon="1.27541">
        <ele>16</ele>
        <time>2012-03-06T15:58:08Z</time>
      </trkpt>
      <trkpt lat="49.33354" lon="1.27555">
        <ele>11</ele>
        <time>2012-03-06T15:58:19Z</time>
      </trkpt>
      <trkpt lat="49.33349" lon="1.27566">
        <ele>11</ele>
        <time>2012-03-06T15:58:26Z</time>
      </trkpt>
      <trkpt lat="49.33345" lon="1.27581">
        <ele>11</ele>
        <time>2012-03-06T15:58:37Z</time>
      </trkpt>
      <trkpt lat="49.3334" lon="1.27593">
        <ele>11</ele>
        <time>2012-03-06T15:58:45Z</time>
      </trkpt>
      <trkpt lat="49.33336" lon="1.27607">
        <ele>11</ele>
        <time>2012-03-06T15:58:54Z</time>
      </trkpt>
      <trkpt lat="49.33332" lon="1.27621">
        <ele>17</ele>
        <time>2012-03-06T15:59:02Z</time>
      </trkpt>
      <trkpt lat="49.3333" lon="1.27634">
        <ele>17</ele>
        <time>2012-03-06T15:59:11Z</time>
      </trkpt>
      <trkpt lat="49.33326" lon="1.27649">
        <ele>17</ele>
        <time>2012-03-06T15:59:19Z</time>
      </trkpt>
      <trkpt lat="49.3332" lon="1.27662">
        <ele>17</ele>
        <time>2012-03-06T15:59:27Z</time>
      </trkpt>
      <trkpt lat="49.33317" lon="1.27676">
        <ele>17</ele>
        <time>2012-03-06T15:59:35Z</time>
      </trkpt>
      <trkpt lat="49.33312" lon="1.27688">
        <ele>17</ele>
        <time>2012-03-06T15:59:44Z</time>
      </trkpt>
      <trkpt lat="49.33309" lon="1.27703">
        <ele>17</ele>
        <time>2012-03-06T15:59:54Z</time>
      </trkpt>
      <trkpt lat="49.33304" lon="1.27716">
        <ele>17</ele>
        <time>2012-03-06T16:00:03Z</time>
      </trkpt>
      <trkpt lat="49.333" lon="1.27731">
        <ele>17</ele>
        <time>2012-03-06T16:00:12Z</time>
      </trkpt>
      <trkpt lat="49.33296" lon="1.27745">
        <ele>22</ele>
        <time>2012-03-06T16:00:20Z</time>
      </trkpt>
    </trkseg>
  </trk>
</gpx>